<?xml version="1.0" encoding="UTF-8" standalone="no" ?>
<gpx xmlns="http://www.topografix.com/GPX/1/1" xmlns:xsi="http://www.w3.org/2001/XMLSchema-instance" xsi:schemaLocation="http://www.topografix.com/GPX/1/1 http://www.topografix.com/GPX/1/1/gpx.xsd" version="1.1" creator="VisuGPX - https://www.visugpx.com">
  <metadata>
    <name>Ajout Pyrénées</name>
    <desc><![CDATA[Randonnée sur le GR®654 Via Lemovicensis vers Saint-Jacques-de-Compostelle à travers les Landes et les Pyrénées-Atlantiques de Mont-de-Marsan à Saint-Palais. Gîtes d'étapes, Chambres d'hôtes, Maison d'hôtes, Hôtels, Camping, Refuges, Auberges, Commerces.]]></desc>
  </metadata>
  <trk>
    <name><![CDATA[GR®105 De Lortet au Port d'Ourdissétou (Hautes-Pyrénées) (2021)]]></name>
    <desc><![CDATA[Randonnée sur le GR®105 à travers les Hautes-Pyrénées de Lortet au Port d'Ourdissétou (France/Espagne). Gîtes d'étapes, Chambres d'hôtes, Maison d'hôtes, Hôtels, Camping, Refuges, Auberges.]]></desc>
    <extensions>
      <line xmlns="http://www.topografix.com/GPX/gpx_style/0/2">
        <color>000000</color>
        <width>4</width>
      </line>
    </extensions>
    <trkseg>
      <trkpt lat="43.04243" lon="0.37994">
        <ele>556.629</ele>
        <time>2020-04-19T17:22:43Z</time>
      </trkpt>
      <trkpt lat="43.04196" lon="0.37999">
        <ele>561.52</ele>
        <time>2020-04-19T17:23:03Z</time>
      </trkpt>
      <trkpt lat="43.04103" lon="0.37966">
        <ele>574.308</ele>
        <time>2020-04-19T17:23:23Z</time>
      </trkpt>
      <trkpt lat="43.04034" lon="0.37921">
        <ele>572.878</ele>
        <time>2020-04-19T17:23:43Z</time>
      </trkpt>
      <trkpt lat="43.03988" lon="0.37926">
        <ele>570.897</ele>
        <time>2020-04-19T17:24:03Z</time>
      </trkpt>
      <trkpt lat="43.03937" lon="0.37975">
        <ele>577.328</ele>
        <time>2020-04-19T17:24:23Z</time>
      </trkpt>
      <trkpt lat="43.03866" lon="0.38074">
        <ele>590.284</ele>
        <time>2020-04-19T17:24:43Z</time>
      </trkpt>
      <trkpt lat="43.03744" lon="0.38078">
        <ele>588.743</ele>
        <time>2020-04-19T17:25:03Z</time>
      </trkpt>
      <trkpt lat="43.03647" lon="0.38107">
        <ele>587.435</ele>
        <time>2020-04-19T17:25:23Z</time>
      </trkpt>
      <trkpt lat="43.0362" lon="0.3809">
        <ele>585.832</ele>
        <time>2020-04-19T17:25:43Z</time>
      </trkpt>
      <trkpt lat="43.03516" lon="0.38076">
        <ele>579.149</ele>
        <time>2020-04-19T17:26:03Z</time>
      </trkpt>
      <trkpt lat="43.0349" lon="0.38041">
        <ele>577.512</ele>
        <time>2020-04-19T17:26:23Z</time>
      </trkpt>
      <trkpt lat="43.03396" lon="0.38058">
        <ele>575.532</ele>
        <time>2020-04-19T17:26:43Z</time>
      </trkpt>
      <trkpt lat="43.0335" lon="0.38111">
        <ele>577.705</ele>
        <time>2020-04-19T17:27:03Z</time>
      </trkpt>
      <trkpt lat="43.03286" lon="0.38206">
        <ele>580.608</ele>
        <time>2020-04-19T17:27:23Z</time>
      </trkpt>
      <trkpt lat="43.03224" lon="0.38266">
        <ele>581.917</ele>
        <time>2020-04-19T17:27:43Z</time>
      </trkpt>
      <trkpt lat="43.03189" lon="0.38327">
        <ele>582.846</ele>
        <time>2020-04-19T17:28:03Z</time>
      </trkpt>
      <trkpt lat="43.0318" lon="0.38393">
        <ele>587.167</ele>
        <time>2020-04-19T17:28:23Z</time>
      </trkpt>
      <trkpt lat="43.0315" lon="0.38489">
        <ele>590.933</ele>
        <time>2020-04-19T17:28:43Z</time>
      </trkpt>
      <trkpt lat="43.03141" lon="0.38557">
        <ele>594.252</ele>
        <time>2020-04-19T17:29:03Z</time>
      </trkpt>
      <trkpt lat="43.03179" lon="0.38667">
        <ele>597.494</ele>
        <time>2020-04-19T17:29:23Z</time>
      </trkpt>
      <trkpt lat="43.03137" lon="0.38721">
        <ele>596.721</ele>
        <time>2020-04-19T17:29:43Z</time>
      </trkpt>
      <trkpt lat="43.03079" lon="0.38897">
        <ele>608.928</ele>
        <time>2020-04-19T17:30:03Z</time>
      </trkpt>
      <trkpt lat="43.03067" lon="0.38864">
        <ele>608.326</ele>
        <time>2020-04-19T17:30:23Z</time>
      </trkpt>
      <trkpt lat="43.03058" lon="0.3881">
        <ele>603.447</ele>
        <time>2020-04-19T17:30:43Z</time>
      </trkpt>
      <trkpt lat="43.0303" lon="0.3874">
        <ele>603.511</ele>
        <time>2020-04-19T17:31:03Z</time>
      </trkpt>
      <trkpt lat="43.03036" lon="0.3866">
        <ele>604.408</ele>
        <time>2020-04-19T17:31:23Z</time>
      </trkpt>
      <trkpt lat="43.03021" lon="0.38602">
        <ele>605.818</ele>
        <time>2020-04-19T17:31:43Z</time>
      </trkpt>
      <trkpt lat="43.02984" lon="0.38539">
        <ele>608.227</ele>
        <time>2020-04-19T17:32:03Z</time>
      </trkpt>
      <trkpt lat="43.02922" lon="0.38464">
        <ele>599.788</ele>
        <time>2020-04-19T17:32:23Z</time>
      </trkpt>
      <trkpt lat="43.02877" lon="0.38444">
        <ele>607.614</ele>
        <time>2020-04-19T17:32:43Z</time>
      </trkpt>
      <trkpt lat="43.0284" lon="0.38445">
        <ele>609.273</ele>
        <time>2020-04-19T17:33:03Z</time>
      </trkpt>
      <trkpt lat="43.02819" lon="0.38417">
        <ele>616.345</ele>
        <time>2020-04-19T17:33:23Z</time>
      </trkpt>
      <trkpt lat="43.02785" lon="0.38306">
        <ele>605.812</ele>
        <time>2020-04-19T17:33:43Z</time>
      </trkpt>
      <trkpt lat="43.02747" lon="0.38238">
        <ele>610.289</ele>
        <time>2020-04-19T17:34:03Z</time>
      </trkpt>
      <trkpt lat="43.0263" lon="0.38086">
        <ele>616.865</ele>
        <time>2020-04-19T17:34:23Z</time>
      </trkpt>
      <trkpt lat="43.02588" lon="0.38069">
        <ele>609.768</ele>
        <time>2020-04-19T17:34:43Z</time>
      </trkpt>
      <trkpt lat="43.02563" lon="0.38069">
        <ele>611.914</ele>
        <time>2020-04-19T17:35:03Z</time>
      </trkpt>
      <trkpt lat="43.02467" lon="0.38057">
        <ele>607.808</ele>
        <time>2020-04-19T17:35:23Z</time>
      </trkpt>
      <trkpt lat="43.0236" lon="0.38091">
        <ele>616.492</ele>
        <time>2020-04-19T17:35:43Z</time>
      </trkpt>
      <trkpt lat="43.02268" lon="0.3809">
        <ele>613.021</ele>
        <time>2020-04-19T17:36:03Z</time>
      </trkpt>
      <trkpt lat="43.02136" lon="0.38072">
        <ele>604.072</ele>
        <time>2020-04-19T17:36:23Z</time>
      </trkpt>
      <trkpt lat="43.02122" lon="0.38057">
        <ele>602.358</ele>
        <time>2020-04-19T17:36:43Z</time>
      </trkpt>
      <trkpt lat="43.02091" lon="0.38044">
        <ele>600.627</ele>
        <time>2020-04-19T17:37:03Z</time>
      </trkpt>
      <trkpt lat="43.02062" lon="0.38069">
        <ele>600.949</ele>
        <time>2020-04-19T17:37:23Z</time>
      </trkpt>
      <trkpt lat="43.02041" lon="0.38062">
        <ele>599.676</ele>
        <time>2020-04-19T17:37:43Z</time>
      </trkpt>
      <trkpt lat="43.02001" lon="0.38013">
        <ele>592.153</ele>
        <time>2020-04-19T17:38:03Z</time>
      </trkpt>
      <trkpt lat="43.01947" lon="0.37978">
        <ele>591.042</ele>
        <time>2020-04-19T17:38:23Z</time>
      </trkpt>
      <trkpt lat="43.01946" lon="0.37921">
        <ele>591.222</ele>
        <time>2020-04-19T17:38:43Z</time>
      </trkpt>
      <trkpt lat="43.01904" lon="0.37844">
        <ele>594.614</ele>
        <time>2020-04-19T17:39:03Z</time>
      </trkpt>
      <trkpt lat="43.01757" lon="0.37928">
        <ele>598.608</ele>
        <time>2020-04-19T17:39:23Z</time>
      </trkpt>
      <trkpt lat="43.01653" lon="0.37924">
        <ele>600.46</ele>
        <time>2020-04-19T17:39:43Z</time>
      </trkpt>
      <trkpt lat="43.01621" lon="0.37919">
        <ele>602.169</ele>
        <time>2020-04-19T17:40:03Z</time>
      </trkpt>
      <trkpt lat="43.01567" lon="0.37933">
        <ele>606.16</ele>
        <time>2020-04-19T17:40:23Z</time>
      </trkpt>
      <trkpt lat="43.01515" lon="0.37917">
        <ele>607.926</ele>
        <time>2020-04-19T17:40:43Z</time>
      </trkpt>
      <trkpt lat="43.01446" lon="0.3794">
        <ele>609.695</ele>
        <time>2020-04-19T17:41:03Z</time>
      </trkpt>
      <trkpt lat="43.01361" lon="0.3803">
        <ele>616.317</ele>
        <time>2020-04-19T17:41:23Z</time>
      </trkpt>
      <trkpt lat="43.01305" lon="0.38116">
        <ele>624.394</ele>
        <time>2020-04-19T17:41:43Z</time>
      </trkpt>
      <trkpt lat="43.01236" lon="0.38149">
        <ele>622.471</ele>
        <time>2020-04-19T17:42:03Z</time>
      </trkpt>
      <trkpt lat="43.012" lon="0.38156">
        <ele>621.748</ele>
        <time>2020-04-19T17:42:23Z</time>
      </trkpt>
      <trkpt lat="43.01105" lon="0.382">
        <ele>626.761</ele>
        <time>2020-04-19T17:42:43Z</time>
      </trkpt>
      <trkpt lat="43.01016" lon="0.38227">
        <ele>624.817</ele>
        <time>2020-04-19T17:43:03Z</time>
      </trkpt>
      <trkpt lat="43.00965" lon="0.38255">
        <ele>626.108</ele>
        <time>2020-04-19T17:43:23Z</time>
      </trkpt>
      <trkpt lat="43.00888" lon="0.38262">
        <ele>622.19</ele>
        <time>2020-04-19T17:43:43Z</time>
      </trkpt>
      <trkpt lat="43.00785" lon="0.38308">
        <ele>621.999</ele>
        <time>2020-04-19T17:44:03Z</time>
      </trkpt>
      <trkpt lat="43.00692" lon="0.38379">
        <ele>620.02</ele>
        <time>2020-04-19T17:44:23Z</time>
      </trkpt>
      <trkpt lat="43.00687" lon="0.38424">
        <ele>621.926</ele>
        <time>2020-04-19T17:44:43Z</time>
      </trkpt>
      <trkpt lat="43.00654" lon="0.38377">
        <ele>622.095</ele>
        <time>2020-04-19T17:45:03Z</time>
      </trkpt>
      <trkpt lat="43.00645" lon="0.3833">
        <ele>619.737</ele>
        <time>2020-04-19T17:45:23Z</time>
      </trkpt>
      <trkpt lat="43.00633" lon="0.3833">
        <ele>620.894</ele>
        <time>2020-04-19T17:45:43Z</time>
      </trkpt>
      <trkpt lat="43.00627" lon="0.38369">
        <ele>623.371</ele>
        <time>2020-04-19T17:46:03Z</time>
      </trkpt>
      <trkpt lat="43.00599" lon="0.38367">
        <ele>624.969</ele>
        <time>2020-04-19T17:46:23Z</time>
      </trkpt>
      <trkpt lat="43.00436" lon="0.38288">
        <ele>633.704</ele>
        <time>2020-04-19T17:46:43Z</time>
      </trkpt>
      <trkpt lat="43.0035" lon="0.38271">
        <ele>637.624</ele>
        <time>2020-04-19T17:47:03Z</time>
      </trkpt>
      <trkpt lat="43.00288" lon="0.38243">
        <ele>639.208</ele>
        <time>2020-04-19T17:47:23Z</time>
      </trkpt>
      <trkpt lat="43.00218" lon="0.38243">
        <ele>648.152</ele>
        <time>2020-04-19T17:47:43Z</time>
      </trkpt>
      <trkpt lat="43.00163" lon="0.38254">
        <ele>658.281</ele>
        <time>2020-04-19T17:48:03Z</time>
      </trkpt>
      <trkpt lat="43.00136" lon="0.38281">
        <ele>662.642</ele>
        <time>2020-04-19T17:48:23Z</time>
      </trkpt>
      <trkpt lat="43.00091" lon="0.38278">
        <ele>662.638</ele>
        <time>2020-04-19T17:48:43Z</time>
      </trkpt>
      <trkpt lat="43.00054" lon="0.38248">
        <ele>656.177</ele>
        <time>2020-04-19T17:49:03Z</time>
      </trkpt>
      <trkpt lat="43.00007" lon="0.38241">
        <ele>660.559</ele>
        <time>2020-04-19T17:49:23Z</time>
      </trkpt>
      <trkpt lat="42.99921" lon="0.38222">
        <ele>660.186</ele>
        <time>2020-04-19T17:49:43Z</time>
      </trkpt>
      <trkpt lat="42.99835" lon="0.38252">
        <ele>669.583</ele>
        <time>2020-04-19T17:50:03Z</time>
      </trkpt>
      <trkpt lat="42.99766" lon="0.38254">
        <ele>671.878</ele>
        <time>2020-04-19T17:50:23Z</time>
      </trkpt>
      <trkpt lat="42.99745" lon="0.38301">
        <ele>678.633</ele>
        <time>2020-04-19T17:50:43Z</time>
      </trkpt>
      <trkpt lat="42.99733" lon="0.38302">
        <ele>679.126</ele>
        <time>2020-04-19T17:51:03Z</time>
      </trkpt>
      <trkpt lat="42.99709" lon="0.38255">
        <ele>676.608</ele>
        <time>2020-04-19T17:51:23Z</time>
      </trkpt>
      <trkpt lat="42.99663" lon="0.38243">
        <ele>673.443</ele>
        <time>2020-04-19T17:51:43Z</time>
      </trkpt>
      <trkpt lat="42.99621" lon="0.38273">
        <ele>675.572</ele>
        <time>2020-04-19T17:52:03Z</time>
      </trkpt>
      <trkpt lat="42.99575" lon="0.38369">
        <ele>679.343</ele>
        <time>2020-04-19T17:52:23Z</time>
      </trkpt>
      <trkpt lat="42.99537" lon="0.38475">
        <ele>691.279</ele>
        <time>2020-04-19T17:52:43Z</time>
      </trkpt>
      <trkpt lat="42.99508" lon="0.38503">
        <ele>689.858</ele>
        <time>2020-04-19T17:53:03Z</time>
      </trkpt>
      <trkpt lat="42.99473" lon="0.3852">
        <ele>689.16</ele>
        <time>2020-04-19T17:53:23Z</time>
      </trkpt>
      <trkpt lat="42.99423" lon="0.38508">
        <ele>684.687</ele>
        <time>2020-04-19T17:53:43Z</time>
      </trkpt>
      <trkpt lat="42.99395" lon="0.38515">
        <ele>694.414</ele>
        <time>2020-04-19T17:54:03Z</time>
      </trkpt>
      <trkpt lat="42.99388" lon="0.38499">
        <ele>700.145</ele>
        <time>2020-04-19T17:54:23Z</time>
      </trkpt>
      <trkpt lat="42.99415" lon="0.3848">
        <ele>695.447</ele>
        <time>2020-04-19T17:54:43Z</time>
      </trkpt>
      <trkpt lat="42.99457" lon="0.38412">
        <ele>687.511</ele>
        <time>2020-04-19T17:55:03Z</time>
      </trkpt>
      <trkpt lat="42.99472" lon="0.38362">
        <ele>686.208</ele>
        <time>2020-04-19T17:55:23Z</time>
      </trkpt>
      <trkpt lat="42.99497" lon="0.3832">
        <ele>681.31</ele>
        <time>2020-04-19T17:55:43Z</time>
      </trkpt>
      <trkpt lat="42.9951" lon="0.38276">
        <ele>673.799</ele>
        <time>2020-04-19T17:56:03Z</time>
      </trkpt>
      <trkpt lat="42.99509" lon="0.38179">
        <ele>670.94</ele>
        <time>2020-04-19T17:56:23Z</time>
      </trkpt>
      <trkpt lat="42.99518" lon="0.38123">
        <ele>663.446</ele>
        <time>2020-04-19T17:56:43Z</time>
      </trkpt>
      <trkpt lat="42.99508" lon="0.38083">
        <ele>665.355</ele>
        <time>2020-04-19T17:57:03Z</time>
      </trkpt>
      <trkpt lat="42.99534" lon="0.38032">
        <ele>658.717</ele>
        <time>2020-04-19T17:57:23Z</time>
      </trkpt>
      <trkpt lat="42.99537" lon="0.37888">
        <ele>652.954</ele>
        <time>2020-04-19T17:57:43Z</time>
      </trkpt>
      <trkpt lat="42.99552" lon="0.37825">
        <ele>647.921</ele>
        <time>2020-04-19T17:58:03Z</time>
      </trkpt>
      <trkpt lat="42.99575" lon="0.37788">
        <ele>646.343</ele>
        <time>2020-04-19T17:58:23Z</time>
      </trkpt>
      <trkpt lat="42.99573" lon="0.37741">
        <ele>640.064</ele>
        <time>2020-04-19T17:58:43Z</time>
      </trkpt>
      <trkpt lat="42.99543" lon="0.37654">
        <ele>622.41</ele>
        <time>2020-04-19T17:59:03Z</time>
      </trkpt>
      <trkpt lat="42.99548" lon="0.37612">
        <ele>618.008</ele>
        <time>2020-04-19T17:59:23Z</time>
      </trkpt>
      <trkpt lat="42.99571" lon="0.37605">
        <ele>616.06</ele>
        <time>2020-04-19T17:59:43Z</time>
      </trkpt>
      <trkpt lat="42.9955" lon="0.37574">
        <ele>606.349</ele>
        <time>2020-04-19T18:00:03Z</time>
      </trkpt>
      <trkpt lat="42.99518" lon="0.37555">
        <ele>605.73</ele>
        <time>2020-04-19T18:00:23Z</time>
      </trkpt>
      <trkpt lat="42.99511" lon="0.37539">
        <ele>604.216</ele>
        <time>2020-04-19T18:00:43Z</time>
      </trkpt>
      <trkpt lat="42.99415" lon="0.37657">
        <ele>610.055</ele>
        <time>2020-04-19T18:01:03Z</time>
      </trkpt>
      <trkpt lat="42.99332" lon="0.37657">
        <ele>610.397</ele>
        <time>2020-04-19T18:01:23Z</time>
      </trkpt>
      <trkpt lat="42.99295" lon="0.37645">
        <ele>608.564</ele>
        <time>2020-04-19T18:01:43Z</time>
      </trkpt>
      <trkpt lat="42.99246" lon="0.37649">
        <ele>612.131</ele>
        <time>2020-04-19T18:02:03Z</time>
      </trkpt>
      <trkpt lat="42.99223" lon="0.37657">
        <ele>610.964</ele>
        <time>2020-04-19T18:02:23Z</time>
      </trkpt>
      <trkpt lat="42.99204" lon="0.37602">
        <ele>604.706</ele>
        <time>2020-04-19T18:02:43Z</time>
      </trkpt>
      <trkpt lat="42.99017" lon="0.3764">
        <ele>605.216</ele>
        <time>2020-04-19T18:03:03Z</time>
      </trkpt>
      <trkpt lat="42.98985" lon="0.37654">
        <ele>605.508</ele>
        <time>2020-04-19T18:03:23Z</time>
      </trkpt>
      <trkpt lat="42.98773" lon="0.37703">
        <ele>609.432</ele>
        <time>2020-04-19T18:03:43Z</time>
      </trkpt>
      <trkpt lat="42.98733" lon="0.37703">
        <ele>608.021</ele>
        <time>2020-04-19T18:04:03Z</time>
      </trkpt>
      <trkpt lat="42.98696" lon="0.37739">
        <ele>609.182</ele>
        <time>2020-04-19T18:04:23Z</time>
      </trkpt>
      <trkpt lat="42.98611" lon="0.37776">
        <ele>616.278</ele>
        <time>2020-04-19T18:04:43Z</time>
      </trkpt>
      <trkpt lat="42.9856" lon="0.37781">
        <ele>615.647</ele>
        <time>2020-04-19T18:05:03Z</time>
      </trkpt>
      <trkpt lat="42.98504" lon="0.37766">
        <ele>612.939</ele>
        <time>2020-04-19T18:05:23Z</time>
      </trkpt>
      <trkpt lat="42.98465" lon="0.3776">
        <ele>614.356</ele>
        <time>2020-04-19T18:05:43Z</time>
      </trkpt>
      <trkpt lat="42.98438" lon="0.37736">
        <ele>610.633</ele>
        <time>2020-04-19T18:06:03Z</time>
      </trkpt>
      <trkpt lat="42.98364" lon="0.37701">
        <ele>609.438</ele>
        <time>2020-04-19T18:06:23Z</time>
      </trkpt>
      <trkpt lat="42.98244" lon="0.37659">
        <ele>611.87</ele>
        <time>2020-04-19T18:06:43Z</time>
      </trkpt>
      <trkpt lat="42.98174" lon="0.37645">
        <ele>612.217</ele>
        <time>2020-04-19T18:07:03Z</time>
      </trkpt>
      <trkpt lat="42.98119" lon="0.37635">
        <ele>612.008</ele>
        <time>2020-04-19T18:07:23Z</time>
      </trkpt>
      <trkpt lat="42.98058" lon="0.37645">
        <ele>613.819</ele>
        <time>2020-04-19T18:07:43Z</time>
      </trkpt>
      <trkpt lat="42.98015" lon="0.37659">
        <ele>615.278</ele>
        <time>2020-04-19T18:08:03Z</time>
      </trkpt>
      <trkpt lat="42.97929" lon="0.37678">
        <ele>616.849</ele>
        <time>2020-04-19T18:08:23Z</time>
      </trkpt>
      <trkpt lat="42.97865" lon="0.37731">
        <ele>618.415</ele>
        <time>2020-04-19T18:08:43Z</time>
      </trkpt>
      <trkpt lat="42.97814" lon="0.37745">
        <ele>619.234</ele>
        <time>2020-04-19T18:09:03Z</time>
      </trkpt>
      <trkpt lat="42.97775" lon="0.37738">
        <ele>618.586</ele>
        <time>2020-04-19T18:09:23Z</time>
      </trkpt>
      <trkpt lat="42.97718" lon="0.37743">
        <ele>618.563</ele>
        <time>2020-04-19T18:09:43Z</time>
      </trkpt>
      <trkpt lat="42.97609" lon="0.37715">
        <ele>616.79</ele>
        <time>2020-04-19T18:10:03Z</time>
      </trkpt>
      <trkpt lat="42.9748" lon="0.37706">
        <ele>619.513</ele>
        <time>2020-04-19T18:10:23Z</time>
      </trkpt>
      <trkpt lat="42.97386" lon="0.37684">
        <ele>620.643</ele>
        <time>2020-04-19T18:10:43Z</time>
      </trkpt>
      <trkpt lat="42.97321" lon="0.37696">
        <ele>622.207</ele>
        <time>2020-04-19T18:11:03Z</time>
      </trkpt>
      <trkpt lat="42.9723" lon="0.37746">
        <ele>621.808</ele>
        <time>2020-04-19T18:11:23Z</time>
      </trkpt>
      <trkpt lat="42.97193" lon="0.37809">
        <ele>626.827</ele>
        <time>2020-04-19T18:11:43Z</time>
      </trkpt>
      <trkpt lat="42.97173" lon="0.3782">
        <ele>627.236</ele>
        <time>2020-04-19T18:12:03Z</time>
      </trkpt>
      <trkpt lat="42.97154" lon="0.37804">
        <ele>624.377</ele>
        <time>2020-04-19T18:12:23Z</time>
      </trkpt>
      <trkpt lat="42.97065" lon="0.37767">
        <ele>621.923</ele>
        <time>2020-04-19T18:12:43Z</time>
      </trkpt>
      <trkpt lat="42.96982" lon="0.37745">
        <ele>620.652</ele>
        <time>2020-04-19T18:13:03Z</time>
      </trkpt>
      <trkpt lat="42.96892" lon="0.3776">
        <ele>623.424</ele>
        <time>2020-04-19T18:13:23Z</time>
      </trkpt>
      <trkpt lat="42.96807" lon="0.37771">
        <ele>625.371</ele>
        <time>2020-04-19T18:13:43Z</time>
      </trkpt>
      <trkpt lat="42.96733" lon="0.37802">
        <ele>626.538</ele>
        <time>2020-04-19T18:14:03Z</time>
      </trkpt>
      <trkpt lat="42.96677" lon="0.37837">
        <ele>625.379</ele>
        <time>2020-04-19T18:14:23Z</time>
      </trkpt>
      <trkpt lat="42.96682" lon="0.37884">
        <ele>627.305</ele>
        <time>2020-04-19T18:14:43Z</time>
      </trkpt>
      <trkpt lat="42.96662" lon="0.37917">
        <ele>627.525</ele>
        <time>2020-04-19T18:15:03Z</time>
      </trkpt>
      <trkpt lat="42.9656" lon="0.37983">
        <ele>629.308</ele>
        <time>2020-04-19T18:15:23Z</time>
      </trkpt>
      <trkpt lat="42.96497" lon="0.38065">
        <ele>628.333</ele>
        <time>2020-04-19T18:15:43Z</time>
      </trkpt>
      <trkpt lat="42.96437" lon="0.38116">
        <ele>630.432</ele>
        <time>2020-04-19T18:16:03Z</time>
      </trkpt>
      <trkpt lat="42.96405" lon="0.38177">
        <ele>633.293</ele>
        <time>2020-04-19T18:16:23Z</time>
      </trkpt>
      <trkpt lat="42.96393" lon="0.38227">
        <ele>635.529</ele>
        <time>2020-04-19T18:16:43Z</time>
      </trkpt>
      <trkpt lat="42.96359" lon="0.38208">
        <ele>634.378</ele>
        <time>2020-04-19T18:17:03Z</time>
      </trkpt>
      <trkpt lat="42.96289" lon="0.38193">
        <ele>633.83</ele>
        <time>2020-04-19T18:17:23Z</time>
      </trkpt>
      <trkpt lat="42.9627" lon="0.38222">
        <ele>635.077</ele>
        <time>2020-04-19T18:17:43Z</time>
      </trkpt>
      <trkpt lat="42.96278" lon="0.38302">
        <ele>645.544</ele>
        <time>2020-04-19T18:18:03Z</time>
      </trkpt>
      <trkpt lat="42.96245" lon="0.38301">
        <ele>651.632</ele>
        <time>2020-04-19T18:18:23Z</time>
      </trkpt>
      <trkpt lat="42.9614" lon="0.3824">
        <ele>644.992</ele>
        <time>2020-04-19T18:18:43Z</time>
      </trkpt>
      <trkpt lat="42.95997" lon="0.38135">
        <ele>649.811</ele>
        <time>2020-04-19T18:19:03Z</time>
      </trkpt>
      <trkpt lat="42.95935" lon="0.38112">
        <ele>647.808</ele>
        <time>2020-04-19T18:19:23Z</time>
      </trkpt>
      <trkpt lat="42.9588" lon="0.38114">
        <ele>650.939</ele>
        <time>2020-04-19T18:19:43Z</time>
      </trkpt>
      <trkpt lat="42.95877" lon="0.38139">
        <ele>654.938</ele>
        <time>2020-04-19T18:20:03Z</time>
      </trkpt>
      <trkpt lat="42.95806" lon="0.38161">
        <ele>658.999</ele>
        <time>2020-04-19T18:20:23Z</time>
      </trkpt>
      <trkpt lat="42.9577" lon="0.38184">
        <ele>677.525</ele>
        <time>2020-04-19T18:20:43Z</time>
      </trkpt>
      <trkpt lat="42.95755" lon="0.38201">
        <ele>681.534</ele>
        <time>2020-04-19T18:21:03Z</time>
      </trkpt>
      <trkpt lat="42.95701" lon="0.38201">
        <ele>685.886</ele>
        <time>2020-04-19T18:21:23Z</time>
      </trkpt>
      <trkpt lat="42.95664" lon="0.38224">
        <ele>697.583</ele>
        <time>2020-04-19T18:21:43Z</time>
      </trkpt>
      <trkpt lat="42.95604" lon="0.38241">
        <ele>702.04</ele>
        <time>2020-04-19T18:22:03Z</time>
      </trkpt>
      <trkpt lat="42.95563" lon="0.38227">
        <ele>708.378</ele>
        <time>2020-04-19T18:22:23Z</time>
      </trkpt>
      <trkpt lat="42.95556" lon="0.38234">
        <ele>709.833</ele>
        <time>2020-04-19T18:22:43Z</time>
      </trkpt>
      <trkpt lat="42.9544" lon="0.38205">
        <ele>729.926</ele>
        <time>2020-04-19T18:23:03Z</time>
      </trkpt>
      <trkpt lat="42.95394" lon="0.38179">
        <ele>738.508</ele>
        <time>2020-04-19T18:23:23Z</time>
      </trkpt>
      <trkpt lat="42.95319" lon="0.38091">
        <ele>732.973</ele>
        <time>2020-04-19T18:23:43Z</time>
      </trkpt>
      <trkpt lat="42.95292" lon="0.38081">
        <ele>722.672</ele>
        <time>2020-04-19T18:24:03Z</time>
      </trkpt>
      <trkpt lat="42.95246" lon="0.38093">
        <ele>746.293</ele>
        <time>2020-04-19T18:24:23Z</time>
      </trkpt>
      <trkpt lat="42.95216" lon="0.3809">
        <ele>759.659</ele>
        <time>2020-04-19T18:24:43Z</time>
      </trkpt>
      <trkpt lat="42.95201" lon="0.38058">
        <ele>746.348</ele>
        <time>2020-04-19T18:25:03Z</time>
      </trkpt>
      <trkpt lat="42.95181" lon="0.37971">
        <ele>727.18</ele>
        <time>2020-04-19T18:25:23Z</time>
      </trkpt>
      <trkpt lat="42.9514" lon="0.37956">
        <ele>748.137</ele>
        <time>2020-04-19T18:25:43Z</time>
      </trkpt>
      <trkpt lat="42.95113" lon="0.37928">
        <ele>748.474</ele>
        <time>2020-04-19T18:26:03Z</time>
      </trkpt>
      <trkpt lat="42.95046" lon="0.37891">
        <ele>741.297</ele>
        <time>2020-04-19T18:26:23Z</time>
      </trkpt>
      <trkpt lat="42.95114" lon="0.37844">
        <ele>722.523</ele>
        <time>2020-04-19T18:26:43Z</time>
      </trkpt>
      <trkpt lat="42.95094" lon="0.3782">
        <ele>711.825</ele>
        <time>2020-04-19T18:27:03Z</time>
      </trkpt>
      <trkpt lat="42.95081" lon="0.3779">
        <ele>706.608</ele>
        <time>2020-04-19T18:27:23Z</time>
      </trkpt>
      <trkpt lat="42.9504" lon="0.37781">
        <ele>703.245</ele>
        <time>2020-04-19T18:27:43Z</time>
      </trkpt>
      <trkpt lat="42.95009" lon="0.37743">
        <ele>679.644</ele>
        <time>2020-04-19T18:28:03Z</time>
      </trkpt>
      <trkpt lat="42.94956" lon="0.37757">
        <ele>690.975</ele>
        <time>2020-04-19T18:28:23Z</time>
      </trkpt>
      <trkpt lat="42.94894" lon="0.37738">
        <ele>675.851</ele>
        <time>2020-04-19T18:28:43Z</time>
      </trkpt>
      <trkpt lat="42.94808" lon="0.37626">
        <ele>671.92</ele>
        <time>2020-04-19T18:29:03Z</time>
      </trkpt>
      <trkpt lat="42.9476" lon="0.37576">
        <ele>662.542</ele>
        <time>2020-04-19T18:29:23Z</time>
      </trkpt>
      <trkpt lat="42.9472" lon="0.37563">
        <ele>663.979</ele>
        <time>2020-04-19T18:29:43Z</time>
      </trkpt>
      <trkpt lat="42.94686" lon="0.37572">
        <ele>667.796</ele>
        <time>2020-04-19T18:30:03Z</time>
      </trkpt>
      <trkpt lat="42.94633" lon="0.37562">
        <ele>668.032</ele>
        <time>2020-04-19T18:30:23Z</time>
      </trkpt>
      <trkpt lat="42.94571" lon="0.37535">
        <ele>664.292</ele>
        <time>2020-04-19T18:30:43Z</time>
      </trkpt>
      <trkpt lat="42.94524" lon="0.3753">
        <ele>662.611</ele>
        <time>2020-04-19T18:31:03Z</time>
      </trkpt>
      <trkpt lat="42.94524" lon="0.37508">
        <ele>661.008</ele>
        <time>2020-04-19T18:31:23Z</time>
      </trkpt>
      <trkpt lat="42.94542" lon="0.3749">
        <ele>655.159</ele>
        <time>2020-04-19T18:31:43Z</time>
      </trkpt>
      <trkpt lat="42.94537" lon="0.37443">
        <ele>652.958</ele>
        <time>2020-04-19T18:32:03Z</time>
      </trkpt>
      <trkpt lat="42.94436" lon="0.37478">
        <ele>652.839</ele>
        <time>2020-04-19T18:32:23Z</time>
      </trkpt>
      <trkpt lat="42.9436" lon="0.37487">
        <ele>653.635</ele>
        <time>2020-04-19T18:32:43Z</time>
      </trkpt>
      <trkpt lat="42.94306" lon="0.37487">
        <ele>659.554</ele>
        <time>2020-04-19T18:33:03Z</time>
      </trkpt>
      <trkpt lat="42.94202" lon="0.37427">
        <ele>670.136</ele>
        <time>2020-04-19T18:33:23Z</time>
      </trkpt>
      <trkpt lat="42.94128" lon="0.37352">
        <ele>674.413</ele>
        <time>2020-04-19T18:33:43Z</time>
      </trkpt>
      <trkpt lat="42.94103" lon="0.37269">
        <ele>662.47</ele>
        <time>2020-04-19T18:34:03Z</time>
      </trkpt>
      <trkpt lat="42.94104" lon="0.37257">
        <ele>661.735</ele>
        <time>2020-04-19T18:34:23Z</time>
      </trkpt>
      <trkpt lat="42.94033" lon="0.37244">
        <ele>659.486</ele>
        <time>2020-04-19T18:34:43Z</time>
      </trkpt>
      <trkpt lat="42.94003" lon="0.3725">
        <ele>659.914</ele>
        <time>2020-04-19T18:35:03Z</time>
      </trkpt>
      <trkpt lat="42.93969" lon="0.37237">
        <ele>661.708</ele>
        <time>2020-04-19T18:35:23Z</time>
      </trkpt>
      <trkpt lat="42.93964" lon="0.37283">
        <ele>666.659</ele>
        <time>2020-04-19T18:35:43Z</time>
      </trkpt>
      <trkpt lat="42.93919" lon="0.3729">
        <ele>668.058</ele>
        <time>2020-04-19T18:36:03Z</time>
      </trkpt>
      <trkpt lat="42.93877" lon="0.37394">
        <ele>688.039</ele>
        <time>2020-04-19T18:36:23Z</time>
      </trkpt>
      <trkpt lat="42.93886" lon="0.37328">
        <ele>682.025</ele>
        <time>2020-04-19T18:36:43Z</time>
      </trkpt>
      <trkpt lat="42.93886" lon="0.37274">
        <ele>679.144</ele>
        <time>2020-04-19T18:37:03Z</time>
      </trkpt>
      <trkpt lat="42.9385" lon="0.37251">
        <ele>682.896</ele>
        <time>2020-04-19T18:37:23Z</time>
      </trkpt>
      <trkpt lat="42.93832" lon="0.37248">
        <ele>684.023</ele>
        <time>2020-04-19T18:37:43Z</time>
      </trkpt>
      <trkpt lat="42.93805" lon="0.3722">
        <ele>683.63</ele>
        <time>2020-04-19T18:38:03Z</time>
      </trkpt>
      <trkpt lat="42.93717" lon="0.37171">
        <ele>697.789</ele>
        <time>2020-04-19T18:38:23Z</time>
      </trkpt>
      <trkpt lat="42.93696" lon="0.37152">
        <ele>684.006</ele>
        <time>2020-04-19T18:38:43Z</time>
      </trkpt>
      <trkpt lat="42.93674" lon="0.37115">
        <ele>678.926</ele>
        <time>2020-04-19T18:39:03Z</time>
      </trkpt>
      <trkpt lat="42.93596" lon="0.37051">
        <ele>675.708</ele>
        <time>2020-04-19T18:39:23Z</time>
      </trkpt>
      <trkpt lat="42.93541" lon="0.37035">
        <ele>682.614</ele>
        <time>2020-04-19T18:39:43Z</time>
      </trkpt>
      <trkpt lat="42.93335" lon="0.37082">
        <ele>723.013</ele>
        <time>2020-04-19T18:40:03Z</time>
      </trkpt>
      <trkpt lat="42.93257" lon="0.37075">
        <ele>722.044</ele>
        <time>2020-04-19T18:40:23Z</time>
      </trkpt>
      <trkpt lat="42.93303" lon="0.37105">
        <ele>735.77</ele>
        <time>2020-04-19T18:40:43Z</time>
      </trkpt>
      <trkpt lat="42.93174" lon="0.37157">
        <ele>744.289</ele>
        <time>2020-04-19T18:41:03Z</time>
      </trkpt>
      <trkpt lat="42.93152" lon="0.37154">
        <ele>743.091</ele>
        <time>2020-04-19T18:41:23Z</time>
      </trkpt>
      <trkpt lat="42.93114" lon="0.37176">
        <ele>754.828</ele>
        <time>2020-04-19T18:41:43Z</time>
      </trkpt>
      <trkpt lat="42.9307" lon="0.37171">
        <ele>756.145</ele>
        <time>2020-04-19T18:42:03Z</time>
      </trkpt>
      <trkpt lat="42.93049" lon="0.37122">
        <ele>746.887</ele>
        <time>2020-04-19T18:42:23Z</time>
      </trkpt>
      <trkpt lat="42.9297" lon="0.37082">
        <ele>753.342</ele>
        <time>2020-04-19T18:42:43Z</time>
      </trkpt>
      <trkpt lat="42.92883" lon="0.37049">
        <ele>782.826</ele>
        <time>2020-04-19T18:43:03Z</time>
      </trkpt>
      <trkpt lat="42.92828" lon="0.37021">
        <ele>788.008</ele>
        <time>2020-04-19T18:43:23Z</time>
      </trkpt>
      <trkpt lat="42.92792" lon="0.3702">
        <ele>787.274</ele>
        <time>2020-04-19T18:43:43Z</time>
      </trkpt>
      <trkpt lat="42.92739" lon="0.37065">
        <ele>787.933</ele>
        <time>2020-04-19T18:44:03Z</time>
      </trkpt>
      <trkpt lat="42.9267" lon="0.37107">
        <ele>805.084</ele>
        <time>2020-04-19T18:44:23Z</time>
      </trkpt>
      <trkpt lat="42.92626" lon="0.37129">
        <ele>808.32</ele>
        <time>2020-04-19T18:44:43Z</time>
      </trkpt>
      <trkpt lat="42.92575" lon="0.37128">
        <ele>811.399</ele>
        <time>2020-04-19T18:45:03Z</time>
      </trkpt>
      <trkpt lat="42.92402" lon="0.37091">
        <ele>806.321</ele>
        <time>2020-04-19T18:45:23Z</time>
      </trkpt>
      <trkpt lat="42.92333" lon="0.37166">
        <ele>823.158</ele>
        <time>2020-04-19T18:45:43Z</time>
      </trkpt>
      <trkpt lat="42.92275" lon="0.37211">
        <ele>832.655</ele>
        <time>2020-04-19T18:46:03Z</time>
      </trkpt>
      <trkpt lat="42.92229" lon="0.37267">
        <ele>853.279</ele>
        <time>2020-04-19T18:46:23Z</time>
      </trkpt>
      <trkpt lat="42.92187" lon="0.37291">
        <ele>860.205</ele>
        <time>2020-04-19T18:46:43Z</time>
      </trkpt>
      <trkpt lat="42.92121" lon="0.37281">
        <ele>868.925</ele>
        <time>2020-04-19T18:47:03Z</time>
      </trkpt>
      <trkpt lat="42.9208" lon="0.37295">
        <ele>896.208</ele>
        <time>2020-04-19T18:47:23Z</time>
      </trkpt>
      <trkpt lat="42.92069" lon="0.37272">
        <ele>893.563</ele>
        <time>2020-04-19T18:47:43Z</time>
      </trkpt>
      <trkpt lat="42.92071" lon="0.3718">
        <ele>884.572</ele>
        <time>2020-04-19T18:48:03Z</time>
      </trkpt>
      <trkpt lat="42.92116" lon="0.37072">
        <ele>854.993</ele>
        <time>2020-04-19T18:48:23Z</time>
      </trkpt>
      <trkpt lat="42.92122" lon="0.3699">
        <ele>843.189</ele>
        <time>2020-04-19T18:48:43Z</time>
      </trkpt>
      <trkpt lat="42.92116" lon="0.36952">
        <ele>840.128</ele>
        <time>2020-04-19T18:49:03Z</time>
      </trkpt>
      <trkpt lat="42.92047" lon="0.36892">
        <ele>838.78</ele>
        <time>2020-04-19T18:49:23Z</time>
      </trkpt>
      <trkpt lat="42.91954" lon="0.36847">
        <ele>845.497</ele>
        <time>2020-04-19T18:49:43Z</time>
      </trkpt>
      <trkpt lat="42.91875" lon="0.36791">
        <ele>822.984</ele>
        <time>2020-04-19T18:50:03Z</time>
      </trkpt>
      <trkpt lat="42.91824" lon="0.36819">
        <ele>826.742</ele>
        <time>2020-04-19T18:50:23Z</time>
      </trkpt>
      <trkpt lat="42.91765" lon="0.36849">
        <ele>832.822</ele>
        <time>2020-04-19T18:50:43Z</time>
      </trkpt>
      <trkpt lat="42.91737" lon="0.36873">
        <ele>829.214</ele>
        <time>2020-04-19T18:51:03Z</time>
      </trkpt>
      <trkpt lat="42.91718" lon="0.36905">
        <ele>833.208</ele>
        <time>2020-04-19T18:51:23Z</time>
      </trkpt>
      <trkpt lat="42.91682" lon="0.36922">
        <ele>845.04</ele>
        <time>2020-04-19T18:51:43Z</time>
      </trkpt>
      <trkpt lat="42.91635" lon="0.36905">
        <ele>844.179</ele>
        <time>2020-04-19T18:52:03Z</time>
      </trkpt>
      <trkpt lat="42.9163" lon="0.36882">
        <ele>844.54</ele>
        <time>2020-04-19T18:52:23Z</time>
      </trkpt>
      <trkpt lat="42.91654" lon="0.36809">
        <ele>833.326</ele>
        <time>2020-04-19T18:52:43Z</time>
      </trkpt>
      <trkpt lat="42.91641" lon="0.36697">
        <ele>838.525</ele>
        <time>2020-04-19T18:53:03Z</time>
      </trkpt>
      <trkpt lat="42.91642" lon="0.36636">
        <ele>830.187</ele>
        <time>2020-04-19T18:53:23Z</time>
      </trkpt>
      <trkpt lat="42.9152" lon="0.36469">
        <ele>805.564</ele>
        <time>2020-04-19T18:53:43Z</time>
      </trkpt>
      <trkpt lat="42.91446" lon="0.36455">
        <ele>819.291</ele>
        <time>2020-04-19T18:54:03Z</time>
      </trkpt>
      <trkpt lat="42.91415" lon="0.36429">
        <ele>811.913</ele>
        <time>2020-04-19T18:54:23Z</time>
      </trkpt>
      <trkpt lat="42.91358" lon="0.36432">
        <ele>814.543</ele>
        <time>2020-04-19T18:54:43Z</time>
      </trkpt>
      <trkpt lat="42.91304" lon="0.36464">
        <ele>812.407</ele>
        <time>2020-04-19T18:55:03Z</time>
      </trkpt>
      <trkpt lat="42.91176" lon="0.36565">
        <ele>817.808</ele>
        <time>2020-04-19T18:55:23Z</time>
      </trkpt>
      <trkpt lat="42.91082" lon="0.36626">
        <ele>792.417</ele>
        <time>2020-04-19T18:55:43Z</time>
      </trkpt>
      <trkpt lat="42.91028" lon="0.36626">
        <ele>787.016</ele>
        <time>2020-04-19T18:56:03Z</time>
      </trkpt>
      <trkpt lat="42.90972" lon="0.36654">
        <ele>776.577</ele>
        <time>2020-04-19T18:56:23Z</time>
      </trkpt>
      <trkpt lat="42.90876" lon="0.36735">
        <ele>776.623</ele>
        <time>2020-04-19T18:56:43Z</time>
      </trkpt>
      <trkpt lat="42.90816" lon="0.36772">
        <ele>777.832</ele>
        <time>2020-04-19T18:57:03Z</time>
      </trkpt>
      <trkpt lat="42.90782" lon="0.36749">
        <ele>776.394</ele>
        <time>2020-04-19T18:57:23Z</time>
      </trkpt>
      <trkpt lat="42.90722" lon="0.36756">
        <ele>783.871</ele>
        <time>2020-04-19T18:57:43Z</time>
      </trkpt>
      <trkpt lat="42.90712" lon="0.36659">
        <ele>779.498</ele>
        <time>2020-04-19T18:58:03Z</time>
      </trkpt>
      <trkpt lat="42.90685" lon="0.3661">
        <ele>779.439</ele>
        <time>2020-04-19T18:58:23Z</time>
      </trkpt>
      <trkpt lat="42.90647" lon="0.36596">
        <ele>777.301</ele>
        <time>2020-04-19T18:58:43Z</time>
      </trkpt>
      <trkpt lat="42.90625" lon="0.36547">
        <ele>767.321</ele>
        <time>2020-04-19T18:59:03Z</time>
      </trkpt>
      <trkpt lat="42.90613" lon="0.36476">
        <ele>757.008</ele>
        <time>2020-04-19T18:59:23Z</time>
      </trkpt>
      <trkpt lat="42.90581" lon="0.36392">
        <ele>740.739</ele>
        <time>2020-04-19T18:59:43Z</time>
      </trkpt>
      <trkpt lat="42.90556" lon="0.36354">
        <ele>737.818</ele>
        <time>2020-04-19T19:00:03Z</time>
      </trkpt>
      <trkpt lat="42.90528" lon="0.36261">
        <ele>732.039</ele>
        <time>2020-04-19T19:00:23Z</time>
      </trkpt>
      <trkpt lat="42.9053" lon="0.36176">
        <ele>728.165</ele>
        <time>2020-04-19T19:00:43Z</time>
      </trkpt>
      <trkpt lat="42.90511" lon="0.36145">
        <ele>722.264</ele>
        <time>2020-04-19T19:01:03Z</time>
      </trkpt>
      <trkpt lat="42.90524" lon="0.35963">
        <ele>708.496</ele>
        <time>2020-04-19T19:01:23Z</time>
      </trkpt>
      <trkpt lat="42.90506" lon="0.35977">
        <ele>708.423</ele>
        <time>2020-04-19T19:01:43Z</time>
      </trkpt>
      <trkpt lat="42.90468" lon="0.35937">
        <ele>709.26</ele>
        <time>2020-04-19T19:02:03Z</time>
      </trkpt>
      <trkpt lat="42.90455" lon="0.35948">
        <ele>709.691</ele>
        <time>2020-04-19T19:02:23Z</time>
      </trkpt>
      <trkpt lat="42.90441" lon="0.35934">
        <ele>710.181</ele>
        <time>2020-04-19T19:02:43Z</time>
      </trkpt>
      <trkpt lat="42.90427" lon="0.3593">
        <ele>710.719</ele>
        <time>2020-04-19T19:03:03Z</time>
      </trkpt>
      <trkpt lat="42.90417" lon="0.35922">
        <ele>711.608</ele>
        <time>2020-04-19T19:03:23Z</time>
      </trkpt>
      <trkpt lat="42.90396" lon="0.35932">
        <ele>713.775</ele>
        <time>2020-04-19T19:03:43Z</time>
      </trkpt>
      <trkpt lat="42.90386" lon="0.35909">
        <ele>713.764</ele>
        <time>2020-04-19T19:04:03Z</time>
      </trkpt>
      <trkpt lat="42.9039" lon="0.3582">
        <ele>709.365</ele>
        <time>2020-04-19T19:04:23Z</time>
      </trkpt>
      <trkpt lat="42.90283" lon="0.35737">
        <ele>710.291</ele>
        <time>2020-04-19T19:04:43Z</time>
      </trkpt>
      <trkpt lat="42.90285" lon="0.35702">
        <ele>709.02</ele>
        <time>2020-04-19T19:05:03Z</time>
      </trkpt>
      <trkpt lat="42.90264" lon="0.35681">
        <ele>709.072</ele>
        <time>2020-04-19T19:05:23Z</time>
      </trkpt>
      <trkpt lat="42.9028" lon="0.35643">
        <ele>706.319</ele>
        <time>2020-04-19T19:05:43Z</time>
      </trkpt>
      <trkpt lat="42.90271" lon="0.35611">
        <ele>706.056</ele>
        <time>2020-04-19T19:06:03Z</time>
      </trkpt>
      <trkpt lat="42.90301" lon="0.35573">
        <ele>705.646</ele>
        <time>2020-04-19T19:06:23Z</time>
      </trkpt>
      <trkpt lat="42.90311" lon="0.35533">
        <ele>706.488</ele>
        <time>2020-04-19T19:06:43Z</time>
      </trkpt>
      <trkpt lat="42.9034" lon="0.35474">
        <ele>713.416</ele>
        <time>2020-04-19T19:07:03Z</time>
      </trkpt>
      <trkpt lat="42.90384" lon="0.35508">
        <ele>709.108</ele>
        <time>2020-04-19T19:07:23Z</time>
      </trkpt>
      <trkpt lat="42.90387" lon="0.35481">
        <ele>714.06</ele>
        <time>2020-04-19T19:07:43Z</time>
      </trkpt>
      <trkpt lat="42.90358" lon="0.3542">
        <ele>717.419</ele>
        <time>2020-04-19T19:08:03Z</time>
      </trkpt>
      <trkpt lat="42.90322" lon="0.35378">
        <ele>727.03</ele>
        <time>2020-04-19T19:08:23Z</time>
      </trkpt>
      <trkpt lat="42.90333" lon="0.35352">
        <ele>732.456</ele>
        <time>2020-04-19T19:08:43Z</time>
      </trkpt>
      <trkpt lat="42.90331" lon="0.35289">
        <ele>749.525</ele>
        <time>2020-04-19T19:09:03Z</time>
      </trkpt>
      <trkpt lat="42.90345" lon="0.35242">
        <ele>757.277</ele>
        <time>2020-04-19T19:09:23Z</time>
      </trkpt>
      <trkpt lat="42.90306" lon="0.35181">
        <ele>776.824</ele>
        <time>2020-04-19T19:09:43Z</time>
      </trkpt>
      <trkpt lat="42.90244" lon="0.35144">
        <ele>803.651</ele>
        <time>2020-04-19T19:10:03Z</time>
      </trkpt>
      <trkpt lat="42.90184" lon="0.35122">
        <ele>810.144</ele>
        <time>2020-04-19T19:10:23Z</time>
      </trkpt>
      <trkpt lat="42.90116" lon="0.35073">
        <ele>830.905</ele>
        <time>2020-04-19T19:10:43Z</time>
      </trkpt>
      <trkpt lat="42.90063" lon="0.35022">
        <ele>837.615</ele>
        <time>2020-04-19T19:11:03Z</time>
      </trkpt>
      <trkpt lat="42.89967" lon="0.35003">
        <ele>834.908</ele>
        <time>2020-04-19T19:11:23Z</time>
      </trkpt>
      <trkpt lat="42.89913" lon="0.34979">
        <ele>855.28</ele>
        <time>2020-04-19T19:11:43Z</time>
      </trkpt>
      <trkpt lat="42.89868" lon="0.34975">
        <ele>861.089</ele>
        <time>2020-04-19T19:12:03Z</time>
      </trkpt>
      <trkpt lat="42.89846" lon="0.34965">
        <ele>864.07</ele>
        <time>2020-04-19T19:12:23Z</time>
      </trkpt>
      <trkpt lat="42.89777" lon="0.34982">
        <ele>866.716</ele>
        <time>2020-04-19T19:12:43Z</time>
      </trkpt>
      <trkpt lat="42.89727" lon="0.34965">
        <ele>873.395</ele>
        <time>2020-04-19T19:13:03Z</time>
      </trkpt>
      <trkpt lat="42.89688" lon="0.34986">
        <ele>865.627</ele>
        <time>2020-04-19T19:13:23Z</time>
      </trkpt>
      <trkpt lat="42.89635" lon="0.34987">
        <ele>857.344</ele>
        <time>2020-04-19T19:13:43Z</time>
      </trkpt>
      <trkpt lat="42.89588" lon="0.34952">
        <ele>860.811</ele>
        <time>2020-04-19T19:14:03Z</time>
      </trkpt>
      <trkpt lat="42.89476" lon="0.34893">
        <ele>831.233</ele>
        <time>2020-04-19T19:14:23Z</time>
      </trkpt>
      <trkpt lat="42.89421" lon="0.34834">
        <ele>830.423</ele>
        <time>2020-04-19T19:14:43Z</time>
      </trkpt>
      <trkpt lat="42.89388" lon="0.34797">
        <ele>839.015</ele>
        <time>2020-04-19T19:15:03Z</time>
      </trkpt>
      <trkpt lat="42.89321" lon="0.34851">
        <ele>813.308</ele>
        <time>2020-04-19T19:15:23Z</time>
      </trkpt>
      <trkpt lat="42.89273" lon="0.34891">
        <ele>803.249</ele>
        <time>2020-04-19T19:15:43Z</time>
      </trkpt>
      <trkpt lat="42.89209" lon="0.34954">
        <ele>769.648</ele>
        <time>2020-04-19T19:16:03Z</time>
      </trkpt>
      <trkpt lat="42.89127" lon="0.34993">
        <ele>753.919</ele>
        <time>2020-04-19T19:16:23Z</time>
      </trkpt>
      <trkpt lat="42.8909" lon="0.34991">
        <ele>747.565</ele>
        <time>2020-04-19T19:16:43Z</time>
      </trkpt>
      <trkpt lat="42.89048" lon="0.34975">
        <ele>744.264</ele>
        <time>2020-04-19T19:17:03Z</time>
      </trkpt>
      <trkpt lat="42.89074" lon="0.34932">
        <ele>753.756</ele>
        <time>2020-04-19T19:17:23Z</time>
      </trkpt>
      <trkpt lat="42.89048" lon="0.34888">
        <ele>764.753</ele>
        <time>2020-04-19T19:17:43Z</time>
      </trkpt>
      <trkpt lat="42.89033" lon="0.34881">
        <ele>762.87</ele>
        <time>2020-04-19T19:18:03Z</time>
      </trkpt>
      <trkpt lat="42.89019" lon="0.34865">
        <ele>762.298</ele>
        <time>2020-04-19T19:18:23Z</time>
      </trkpt>
      <trkpt lat="42.89005" lon="0.34885">
        <ele>757.715</ele>
        <time>2020-04-19T19:18:43Z</time>
      </trkpt>
      <trkpt lat="42.88966" lon="0.34834">
        <ele>750.226</ele>
        <time>2020-04-19T19:19:03Z</time>
      </trkpt>
      <trkpt lat="42.88923" lon="0.34731">
        <ele>770.008</ele>
        <time>2020-04-19T19:19:23Z</time>
      </trkpt>
      <trkpt lat="42.8892" lon="0.34708">
        <ele>768.775</ele>
        <time>2021-02-12T20:15:54Z</time>
      </trkpt>
      <trkpt lat="42.88912" lon="0.34754">
        <ele>763.084</ele>
        <time>2021-02-12T20:16:14Z</time>
      </trkpt>
      <trkpt lat="42.88914" lon="0.3479">
        <ele>758.325</ele>
        <time>2021-02-12T20:16:34Z</time>
      </trkpt>
      <trkpt lat="42.88898" lon="0.34804">
        <ele>754.421</ele>
        <time>2021-02-12T20:16:54Z</time>
      </trkpt>
      <trkpt lat="42.8885" lon="0.34796">
        <ele>749.88</ele>
        <time>2021-02-12T20:17:14Z</time>
      </trkpt>
      <trkpt lat="42.8881" lon="0.34694">
        <ele>761.492</ele>
        <time>2021-02-12T20:17:34Z</time>
      </trkpt>
      <trkpt lat="42.88808" lon="0.34742">
        <ele>752.099</ele>
        <time>2021-02-12T20:17:54Z</time>
      </trkpt>
      <trkpt lat="42.88815" lon="0.3478">
        <ele>747.016</ele>
        <time>2021-02-12T20:18:14Z</time>
      </trkpt>
      <trkpt lat="42.88787" lon="0.34755">
        <ele>744.763</ele>
        <time>2021-02-12T20:18:34Z</time>
      </trkpt>
      <trkpt lat="42.88611" lon="0.34763">
        <ele>739.344</ele>
        <time>2021-02-12T20:18:54Z</time>
      </trkpt>
      <trkpt lat="42.88444" lon="0.34738">
        <ele>745.118</ele>
        <time>2021-02-12T20:19:14Z</time>
      </trkpt>
      <trkpt lat="42.88336" lon="0.34765">
        <ele>736.508</ele>
        <time>2021-02-12T20:19:34Z</time>
      </trkpt>
      <trkpt lat="42.8831" lon="0.34762">
        <ele>735.612</ele>
        <time>2021-02-12T20:19:54Z</time>
      </trkpt>
      <trkpt lat="42.88291" lon="0.3474">
        <ele>736.931</ele>
        <time>2021-02-12T20:20:14Z</time>
      </trkpt>
      <trkpt lat="42.8826" lon="0.347">
        <ele>742.562</ele>
        <time>2021-02-12T20:20:34Z</time>
      </trkpt>
      <trkpt lat="42.88232" lon="0.34677">
        <ele>746.258</ele>
        <time>2021-02-12T20:20:54Z</time>
      </trkpt>
      <trkpt lat="42.88197" lon="0.34651">
        <ele>756.457</ele>
        <time>2021-02-12T20:21:14Z</time>
      </trkpt>
      <trkpt lat="42.88159" lon="0.34657">
        <ele>753.889</ele>
        <time>2021-02-12T20:21:34Z</time>
      </trkpt>
      <trkpt lat="42.88157" lon="0.34642">
        <ele>762.516</ele>
        <time>2021-02-12T20:21:54Z</time>
      </trkpt>
      <trkpt lat="42.8812" lon="0.34661">
        <ele>752.243</ele>
        <time>2021-02-12T20:22:14Z</time>
      </trkpt>
      <trkpt lat="42.88086" lon="0.34665">
        <ele>751.149</ele>
        <time>2021-02-12T20:22:34Z</time>
      </trkpt>
      <trkpt lat="42.88062" lon="0.34646">
        <ele>758.502</ele>
        <time>2021-02-12T20:22:54Z</time>
      </trkpt>
      <trkpt lat="42.88038" lon="0.34614">
        <ele>768.922</ele>
        <time>2020-04-19T19:29:23Z</time>
      </trkpt>
      <trkpt lat="42.87993" lon="0.34579">
        <ele>786.808</ele>
        <time>2020-04-19T19:29:43Z</time>
      </trkpt>
      <trkpt lat="42.8796" lon="0.34571">
        <ele>792.51</ele>
        <time>2020-04-19T19:30:03Z</time>
      </trkpt>
      <trkpt lat="42.87931" lon="0.34548">
        <ele>795.179</ele>
        <time>2020-04-19T19:30:23Z</time>
      </trkpt>
      <trkpt lat="42.87904" lon="0.34548">
        <ele>781.99</ele>
        <time>2020-04-19T19:30:43Z</time>
      </trkpt>
      <trkpt lat="42.87876" lon="0.34532">
        <ele>783.346</ele>
        <time>2020-04-19T19:31:03Z</time>
      </trkpt>
      <trkpt lat="42.87859" lon="0.34527">
        <ele>782.425</ele>
        <time>2020-04-19T19:31:23Z</time>
      </trkpt>
      <trkpt lat="42.87832" lon="0.34494">
        <ele>790.967</ele>
        <time>2020-04-19T19:31:43Z</time>
      </trkpt>
      <trkpt lat="42.87802" lon="0.34478">
        <ele>793.394</ele>
        <time>2020-04-19T19:32:03Z</time>
      </trkpt>
      <trkpt lat="42.87759" lon="0.34421">
        <ele>792.141</ele>
        <time>2020-04-19T19:32:23Z</time>
      </trkpt>
      <trkpt lat="42.8774" lon="0.34374">
        <ele>793.791</ele>
        <time>2020-04-19T19:32:43Z</time>
      </trkpt>
      <trkpt lat="42.87699" lon="0.34343">
        <ele>794.781</ele>
        <time>2021-02-12T20:26:54Z</time>
      </trkpt>
      <trkpt lat="42.87699" lon="0.34318">
        <ele>802.419</ele>
        <time>2021-02-12T20:27:14Z</time>
      </trkpt>
      <trkpt lat="42.87686" lon="0.34312">
        <ele>798.408</ele>
        <time>2021-02-12T20:27:34Z</time>
      </trkpt>
      <trkpt lat="42.87675" lon="0.34295">
        <ele>807.935</ele>
        <time>2020-04-19T19:34:03Z</time>
      </trkpt>
      <trkpt lat="42.87652" lon="0.34288">
        <ele>788.784</ele>
        <time>2020-04-19T19:34:23Z</time>
      </trkpt>
      <trkpt lat="42.87648" lon="0.34277">
        <ele>795.335</ele>
        <time>2021-02-12T20:28:34Z</time>
      </trkpt>
      <trkpt lat="42.87626" lon="0.34284">
        <ele>786.641</ele>
        <time>2021-02-12T20:28:54Z</time>
      </trkpt>
      <trkpt lat="42.87621" lon="0.34257">
        <ele>791.83</ele>
        <time>2021-02-12T20:29:14Z</time>
      </trkpt>
      <trkpt lat="42.87606" lon="0.34235">
        <ele>792.742</ele>
        <time>2021-02-12T20:29:34Z</time>
      </trkpt>
      <trkpt lat="42.87578" lon="0.34164">
        <ele>803.319</ele>
        <time>2021-02-12T20:29:54Z</time>
      </trkpt>
      <trkpt lat="42.87576" lon="0.34145">
        <ele>806.476</ele>
        <time>2021-02-12T20:30:14Z</time>
      </trkpt>
      <trkpt lat="42.87554" lon="0.34128">
        <ele>797.694</ele>
        <time>2020-04-19T19:36:03Z</time>
      </trkpt>
      <trkpt lat="42.87555" lon="0.34078">
        <ele>810.657</ele>
        <time>2020-04-19T19:36:23Z</time>
      </trkpt>
      <trkpt lat="42.87544" lon="0.34003">
        <ele>810.522</ele>
        <time>2020-04-19T19:36:43Z</time>
      </trkpt>
      <trkpt lat="42.87499" lon="0.33827">
        <ele>812.308</ele>
        <time>2020-04-19T19:37:03Z</time>
      </trkpt>
      <trkpt lat="42.87466" lon="0.33764">
        <ele>810.285</ele>
        <time>2020-04-19T19:37:23Z</time>
      </trkpt>
      <trkpt lat="42.87431" lon="0.33732">
        <ele>810.974</ele>
        <time>2020-04-19T19:37:43Z</time>
      </trkpt>
      <trkpt lat="42.8741" lon="0.33689">
        <ele>805.365</ele>
        <time>2020-04-19T19:38:03Z</time>
      </trkpt>
      <trkpt lat="42.87388" lon="0.33712">
        <ele>802.041</ele>
        <time>2020-04-19T19:38:23Z</time>
      </trkpt>
      <trkpt lat="42.8737" lon="0.33698">
        <ele>802.47</ele>
        <time>2020-04-19T19:38:43Z</time>
      </trkpt>
      <trkpt lat="42.87281" lon="0.33708">
        <ele>799.732</ele>
        <time>2020-04-19T19:39:03Z</time>
      </trkpt>
      <trkpt lat="42.87318" lon="0.33769">
        <ele>789.779</ele>
        <time>2020-04-19T19:39:23Z</time>
      </trkpt>
      <trkpt lat="42.87325" lon="0.33806">
        <ele>788.156</ele>
        <time>2020-04-19T19:39:43Z</time>
      </trkpt>
      <trkpt lat="42.87288" lon="0.33854">
        <ele>782.738</ele>
        <time>2020-04-19T19:40:03Z</time>
      </trkpt>
      <trkpt lat="42.87242" lon="0.33879">
        <ele>778.37</ele>
        <time>2020-04-19T19:40:23Z</time>
      </trkpt>
      <trkpt lat="42.87218" lon="0.33858">
        <ele>778.117</ele>
        <time>2020-04-19T19:40:43Z</time>
      </trkpt>
      <trkpt lat="42.87095" lon="0.33868">
        <ele>772.008</ele>
        <time>2020-04-19T19:41:03Z</time>
      </trkpt>
      <trkpt lat="42.87017" lon="0.33865">
        <ele>769.989</ele>
        <time>2020-04-19T19:41:23Z</time>
      </trkpt>
      <trkpt lat="42.8698" lon="0.33849">
        <ele>769.128</ele>
        <time>2020-04-19T19:41:43Z</time>
      </trkpt>
      <trkpt lat="42.86895" lon="0.3386">
        <ele>769.289</ele>
        <time>2020-04-19T19:42:03Z</time>
      </trkpt>
      <trkpt lat="42.86853" lon="0.33849">
        <ele>771.315</ele>
        <time>2020-04-19T19:42:23Z</time>
      </trkpt>
      <trkpt lat="42.86822" lon="0.33832">
        <ele>777.694</ele>
        <time>2020-04-19T19:42:43Z</time>
      </trkpt>
      <trkpt lat="42.86662" lon="0.33813">
        <ele>773.946</ele>
        <time>2020-04-19T19:43:03Z</time>
      </trkpt>
      <trkpt lat="42.86612" lon="0.33837">
        <ele>773.483</ele>
        <time>2020-04-19T19:43:23Z</time>
      </trkpt>
      <trkpt lat="42.8656" lon="0.33839">
        <ele>774.95</ele>
        <time>2020-04-19T19:43:43Z</time>
      </trkpt>
      <trkpt lat="42.86511" lon="0.33871">
        <ele>774.234</ele>
        <time>2021-02-12T20:38:34Z</time>
      </trkpt>
      <trkpt lat="42.86498" lon="0.33899">
        <ele>772.855</ele>
        <time>2021-02-12T20:38:54Z</time>
      </trkpt>
      <trkpt lat="42.86346" lon="0.33824">
        <ele>777.61</ele>
        <time>2021-02-12T20:39:14Z</time>
      </trkpt>
      <trkpt lat="42.86339" lon="0.33843">
        <ele>777.208</ele>
        <time>2021-02-12T20:39:34Z</time>
      </trkpt>
      <trkpt lat="42.86165" lon="0.33879">
        <ele>771.559</ele>
        <time>2020-04-19T19:45:03Z</time>
      </trkpt>
      <trkpt lat="42.8598" lon="0.33961">
        <ele>768.928</ele>
        <time>2020-04-19T19:45:23Z</time>
      </trkpt>
      <trkpt lat="42.85824" lon="0.34006">
        <ele>774.179</ele>
        <time>2020-04-19T19:45:43Z</time>
      </trkpt>
      <trkpt lat="42.85717" lon="0.34065">
        <ele>776.335</ele>
        <time>2020-04-19T19:46:03Z</time>
      </trkpt>
      <trkpt lat="42.8565" lon="0.34081">
        <ele>778.934</ele>
        <time>2020-04-19T19:46:23Z</time>
      </trkpt>
      <trkpt lat="42.85615" lon="0.34051">
        <ele>785.216</ele>
        <time>2020-04-19T19:46:43Z</time>
      </trkpt>
      <trkpt lat="42.85613" lon="0.33992">
        <ele>808.713</ele>
        <time>2020-04-19T19:47:03Z</time>
      </trkpt>
      <trkpt lat="42.8563" lon="0.33964">
        <ele>812.65</ele>
        <time>2020-04-19T19:47:23Z</time>
      </trkpt>
      <trkpt lat="42.85612" lon="0.33959">
        <ele>814.535</ele>
        <time>2020-04-19T19:47:43Z</time>
      </trkpt>
      <trkpt lat="42.85607" lon="0.33963">
        <ele>813.986</ele>
        <time>2020-04-19T19:48:03Z</time>
      </trkpt>
      <trkpt lat="42.8559" lon="0.3395">
        <ele>817.714</ele>
        <time>2020-04-19T19:48:23Z</time>
      </trkpt>
      <trkpt lat="42.85542" lon="0.33968">
        <ele>824.208</ele>
        <time>2020-04-19T19:48:43Z</time>
      </trkpt>
      <trkpt lat="42.85496" lon="0.34003">
        <ele>814.129</ele>
        <time>2020-04-19T19:49:03Z</time>
      </trkpt>
      <trkpt lat="42.85295" lon="0.34081">
        <ele>793.958</ele>
        <time>2020-04-19T19:49:23Z</time>
      </trkpt>
      <trkpt lat="42.85248" lon="0.34083">
        <ele>783.759</ele>
        <time>2020-04-19T19:49:43Z</time>
      </trkpt>
      <trkpt lat="42.85185" lon="0.34062">
        <ele>795.895</ele>
        <time>2020-04-19T19:50:03Z</time>
      </trkpt>
      <trkpt lat="42.85174" lon="0.34088">
        <ele>776.394</ele>
        <time>2020-04-19T19:50:23Z</time>
      </trkpt>
      <trkpt lat="42.85062" lon="0.34099">
        <ele>782.256</ele>
        <time>2021-02-12T20:45:34Z</time>
      </trkpt>
      <trkpt lat="42.85006" lon="0.34123">
        <ele>778.023</ele>
        <time>2020-04-19T19:51:03Z</time>
      </trkpt>
      <trkpt lat="42.84918" lon="0.34102">
        <ele>783.47</ele>
        <time>2020-04-19T19:51:23Z</time>
      </trkpt>
      <trkpt lat="42.84879" lon="0.34088">
        <ele>777.662</ele>
        <time>2020-04-19T19:51:43Z</time>
      </trkpt>
      <trkpt lat="42.84766" lon="0.34043">
        <ele>782.383</ele>
        <time>2020-04-19T19:52:03Z</time>
      </trkpt>
      <trkpt lat="42.84389" lon="0.33813">
        <ele>774.411</ele>
        <time>2020-04-19T19:52:23Z</time>
      </trkpt>
      <trkpt lat="42.84366" lon="0.33912">
        <ele>772.108</ele>
        <time>2020-04-19T19:52:43Z</time>
      </trkpt>
      <trkpt lat="42.84342" lon="0.33933">
        <ele>771.312</ele>
        <time>2020-04-19T19:53:03Z</time>
      </trkpt>
      <trkpt lat="42.84338" lon="0.33968">
        <ele>770.951</ele>
        <time>2020-04-19T19:53:23Z</time>
      </trkpt>
      <trkpt lat="42.84324" lon="0.34015">
        <ele>769.012</ele>
        <time>2020-04-19T19:53:43Z</time>
      </trkpt>
      <trkpt lat="42.84274" lon="0.33992">
        <ele>770.198</ele>
        <time>2020-04-19T19:54:03Z</time>
      </trkpt>
      <trkpt lat="42.84255" lon="0.33999">
        <ele>770.027</ele>
        <time>2020-04-19T19:54:23Z</time>
      </trkpt>
      <trkpt lat="42.84186" lon="0.33954">
        <ele>771.769</ele>
        <time>2020-04-19T19:54:43Z</time>
      </trkpt>
      <trkpt lat="42.84113" lon="0.33858">
        <ele>773.046</ele>
        <time>2020-04-19T19:55:03Z</time>
      </trkpt>
      <trkpt lat="42.84063" lon="0.33811">
        <ele>773.113</ele>
        <time>2020-04-19T19:55:23Z</time>
      </trkpt>
      <trkpt lat="42.84051" lon="0.3378">
        <ele>773.134</ele>
        <time>2020-04-19T19:55:43Z</time>
      </trkpt>
      <trkpt lat="42.84014" lon="0.33755">
        <ele>773.655</ele>
        <time>2020-04-19T19:56:03Z</time>
      </trkpt>
      <trkpt lat="42.84001" lon="0.33759">
        <ele>773.81</ele>
        <time>2020-04-19T19:56:23Z</time>
      </trkpt>
      <trkpt lat="42.83935" lon="0.33711">
        <ele>775.408</ele>
        <time>2020-04-19T19:56:43Z</time>
      </trkpt>
      <trkpt lat="42.83934" lon="0.33693">
        <ele>775.749</ele>
        <time>2020-04-19T19:57:03Z</time>
      </trkpt>
      <trkpt lat="42.83916" lon="0.33675">
        <ele>777.118</ele>
        <time>2020-04-19T19:57:23Z</time>
      </trkpt>
      <trkpt lat="42.83891" lon="0.3358">
        <ele>777.239</ele>
        <time>2020-04-19T19:57:43Z</time>
      </trkpt>
      <trkpt lat="42.83832" lon="0.33284">
        <ele>785.745</ele>
        <time>2020-04-19T19:58:03Z</time>
      </trkpt>
      <trkpt lat="42.83839" lon="0.33272">
        <ele>791.834</ele>
        <time>2020-04-19T19:58:23Z</time>
      </trkpt>
      <trkpt lat="42.83835" lon="0.33262">
        <ele>791.716</ele>
        <time>2020-04-19T19:58:43Z</time>
      </trkpt>
      <trkpt lat="42.83793" lon="0.33276">
        <ele>784.963</ele>
        <time>2020-04-19T19:59:03Z</time>
      </trkpt>
      <trkpt lat="42.83791" lon="0.33246">
        <ele>789.06</ele>
        <time>2020-04-19T19:59:23Z</time>
      </trkpt>
      <trkpt lat="42.83773" lon="0.33216">
        <ele>788.634</ele>
        <time>2020-04-19T19:59:43Z</time>
      </trkpt>
      <trkpt lat="42.83765" lon="0.33187">
        <ele>788.255</ele>
        <time>2020-04-19T20:00:03Z</time>
      </trkpt>
      <trkpt lat="42.83542" lon="0.33054">
        <ele>786.11</ele>
        <time>2020-04-19T20:00:23Z</time>
      </trkpt>
      <trkpt lat="42.83323" lon="0.32947">
        <ele>787.708</ele>
        <time>2020-04-19T20:00:43Z</time>
      </trkpt>
      <trkpt lat="42.83284" lon="0.3294">
        <ele>788.059</ele>
        <time>2020-04-19T20:01:03Z</time>
      </trkpt>
      <trkpt lat="42.83152" lon="0.32942">
        <ele>790.568</ele>
        <time>2020-04-19T20:01:23Z</time>
      </trkpt>
      <trkpt lat="42.8309" lon="0.32925">
        <ele>791.679</ele>
        <time>2020-04-19T20:01:43Z</time>
      </trkpt>
      <trkpt lat="42.82961" lon="0.32843">
        <ele>793.335</ele>
        <time>2020-04-19T20:02:03Z</time>
      </trkpt>
      <trkpt lat="42.82973" lon="0.32792">
        <ele>793.414</ele>
        <time>2020-04-19T20:02:23Z</time>
      </trkpt>
      <trkpt lat="42.82978" lon="0.32712">
        <ele>794.196</ele>
        <time>2020-04-19T20:02:43Z</time>
      </trkpt>
      <trkpt lat="42.82938" lon="0.32669">
        <ele>795.023</ele>
        <time>2020-04-19T20:03:03Z</time>
      </trkpt>
      <trkpt lat="42.82857" lon="0.32609">
        <ele>797.08</ele>
        <time>2020-04-19T20:03:23Z</time>
      </trkpt>
      <trkpt lat="42.82852" lon="0.32568">
        <ele>797.294</ele>
        <time>2020-04-19T20:03:43Z</time>
      </trkpt>
      <trkpt lat="42.8279" lon="0.32462">
        <ele>798.557</ele>
        <time>2020-04-19T20:04:03Z</time>
      </trkpt>
      <trkpt lat="42.82649" lon="0.32161">
        <ele>804.922</ele>
        <time>2020-04-19T20:04:23Z</time>
      </trkpt>
      <trkpt lat="42.82635" lon="0.32092">
        <ele>805.908</ele>
        <time>2020-04-19T20:04:43Z</time>
      </trkpt>
      <trkpt lat="42.82616" lon="0.31978">
        <ele>811.895</ele>
        <time>2020-04-19T20:05:03Z</time>
      </trkpt>
      <trkpt lat="42.82558" lon="0.31855">
        <ele>817.634</ele>
        <time>2020-04-19T20:05:23Z</time>
      </trkpt>
      <trkpt lat="42.82578" lon="0.31789">
        <ele>820.825</ele>
        <time>2020-04-19T20:05:43Z</time>
      </trkpt>
      <trkpt lat="42.82554" lon="0.31765">
        <ele>820.941</ele>
        <time>2020-04-19T20:06:03Z</time>
      </trkpt>
      <trkpt lat="42.82547" lon="0.31666">
        <ele>828.19</ele>
        <time>2020-04-19T20:06:23Z</time>
      </trkpt>
      <trkpt lat="42.82439" lon="0.31582">
        <ele>826.682</ele>
        <time>2020-04-19T20:06:43Z</time>
      </trkpt>
      <trkpt lat="42.82423" lon="0.31606">
        <ele>823.149</ele>
        <time>2020-04-19T20:07:03Z</time>
      </trkpt>
      <trkpt lat="42.82383" lon="0.31578">
        <ele>826.716</ele>
        <time>2020-04-19T20:07:23Z</time>
      </trkpt>
      <trkpt lat="42.82361" lon="0.31593">
        <ele>823.434</ele>
        <time>2020-04-19T20:07:43Z</time>
      </trkpt>
      <trkpt lat="42.8235" lon="0.31546">
        <ele>828.255</ele>
        <time>2020-04-19T20:08:03Z</time>
      </trkpt>
      <trkpt lat="42.82346" lon="0.315">
        <ele>835.81</ele>
        <time>2020-04-19T20:08:23Z</time>
      </trkpt>
      <trkpt lat="42.8233" lon="0.31496">
        <ele>834.708</ele>
        <time>2020-04-19T20:08:43Z</time>
      </trkpt>
      <trkpt lat="42.82312" lon="0.31449">
        <ele>846.399</ele>
        <time>2020-04-19T20:09:03Z</time>
      </trkpt>
      <trkpt lat="42.82242" lon="0.31462">
        <ele>851.388</ele>
        <time>2020-04-19T20:09:23Z</time>
      </trkpt>
      <trkpt lat="42.82208" lon="0.31446">
        <ele>856.099</ele>
        <time>2020-04-19T20:09:43Z</time>
      </trkpt>
      <trkpt lat="42.82184" lon="0.31442">
        <ele>859.175</ele>
        <time>2020-04-19T20:10:03Z</time>
      </trkpt>
      <trkpt lat="42.82193" lon="0.31427">
        <ele>860.984</ele>
        <time>2020-04-19T20:10:23Z</time>
      </trkpt>
      <trkpt lat="42.8226" lon="0.31397">
        <ele>869.216</ele>
        <time>2020-04-19T20:10:43Z</time>
      </trkpt>
      <trkpt lat="42.82223" lon="0.3138">
        <ele>882.183</ele>
        <time>2020-04-19T20:11:03Z</time>
      </trkpt>
      <trkpt lat="42.82177" lon="0.31356">
        <ele>890.77</ele>
        <time>2020-04-19T20:11:23Z</time>
      </trkpt>
      <trkpt lat="42.82098" lon="0.3141">
        <ele>890.016</ele>
        <time>2020-04-19T20:11:43Z</time>
      </trkpt>
      <trkpt lat="42.8205" lon="0.31421">
        <ele>880.876</ele>
        <time>2020-04-19T20:12:03Z</time>
      </trkpt>
      <trkpt lat="42.81976" lon="0.31419">
        <ele>892.413</ele>
        <time>2020-04-19T20:12:23Z</time>
      </trkpt>
      <trkpt lat="42.81887" lon="0.31403">
        <ele>925.308</ele>
        <time>2020-04-19T20:12:43Z</time>
      </trkpt>
      <trkpt lat="42.81868" lon="0.31432">
        <ele>904.237</ele>
        <time>2020-04-19T20:13:03Z</time>
      </trkpt>
      <trkpt lat="42.81787" lon="0.31503">
        <ele>898.676</ele>
        <time>2020-04-19T20:13:23Z</time>
      </trkpt>
      <trkpt lat="42.81723" lon="0.31503">
        <ele>906.097</ele>
        <time>2020-04-19T20:13:43Z</time>
      </trkpt>
      <trkpt lat="42.81701" lon="0.31481">
        <ele>922.683</ele>
        <time>2020-04-19T20:14:03Z</time>
      </trkpt>
      <trkpt lat="42.81631" lon="0.3144">
        <ele>920.912</ele>
        <time>2020-04-19T20:14:23Z</time>
      </trkpt>
      <trkpt lat="42.81565" lon="0.31367">
        <ele>938.264</ele>
        <time>2020-04-19T20:14:43Z</time>
      </trkpt>
      <trkpt lat="42.81499" lon="0.31345">
        <ele>937.451</ele>
        <time>2020-04-19T20:15:03Z</time>
      </trkpt>
      <trkpt lat="42.81412" lon="0.31341">
        <ele>940.518</ele>
        <time>2020-04-19T20:15:23Z</time>
      </trkpt>
      <trkpt lat="42.81299" lon="0.31345">
        <ele>926.714</ele>
        <time>2020-04-19T20:15:43Z</time>
      </trkpt>
      <trkpt lat="42.81253" lon="0.31285">
        <ele>940.054</ele>
        <time>2020-04-19T20:16:03Z</time>
      </trkpt>
      <trkpt lat="42.81201" lon="0.31236">
        <ele>938.709</ele>
        <time>2020-04-19T20:16:23Z</time>
      </trkpt>
      <trkpt lat="42.81175" lon="0.31201">
        <ele>936.208</ele>
        <time>2021-02-12T21:11:34Z</time>
      </trkpt>
      <trkpt lat="42.81135" lon="0.3116">
        <ele>934.917</ele>
        <time>2021-02-12T21:11:54Z</time>
      </trkpt>
      <trkpt lat="42.81127" lon="0.31123">
        <ele>948.876</ele>
        <time>2021-02-12T21:12:14Z</time>
      </trkpt>
      <trkpt lat="42.80993" lon="0.30953">
        <ele>969.887</ele>
        <time>2021-02-12T21:12:34Z</time>
      </trkpt>
      <trkpt lat="42.8092" lon="0.30956">
        <ele>956.063</ele>
        <time>2020-04-19T20:18:03Z</time>
      </trkpt>
      <trkpt lat="42.80857" lon="0.30887">
        <ele>965.532</ele>
        <time>2020-04-19T20:18:23Z</time>
      </trkpt>
      <trkpt lat="42.80808" lon="0.30874">
        <ele>950.244</ele>
        <time>2021-02-12T21:13:34Z</time>
      </trkpt>
      <trkpt lat="42.80774" lon="0.30839">
        <ele>952.781</ele>
        <time>2021-02-12T21:13:54Z</time>
      </trkpt>
      <trkpt lat="42.80747" lon="0.30799">
        <ele>953.988</ele>
        <time>2021-02-12T21:14:14Z</time>
      </trkpt>
      <trkpt lat="42.80719" lon="0.30784">
        <ele>943.858</ele>
        <time>2021-02-12T21:14:34Z</time>
      </trkpt>
      <trkpt lat="42.80705" lon="0.30745">
        <ele>945.552</ele>
        <time>2021-02-12T21:14:54Z</time>
      </trkpt>
      <trkpt lat="42.80702" lon="0.30702">
        <ele>954.617</ele>
        <time>2020-04-19T20:19:43Z</time>
      </trkpt>
      <trkpt lat="42.8067" lon="0.30612">
        <ele>969.108</ele>
        <time>2020-04-19T20:20:03Z</time>
      </trkpt>
      <trkpt lat="42.80617" lon="0.3053">
        <ele>961.661</ele>
        <time>2020-04-19T20:20:23Z</time>
      </trkpt>
      <trkpt lat="42.80552" lon="0.30472">
        <ele>951.87</ele>
        <time>2020-04-19T20:20:43Z</time>
      </trkpt>
      <trkpt lat="42.80511" lon="0.30384">
        <ele>961.591</ele>
        <time>2020-04-19T20:21:03Z</time>
      </trkpt>
      <trkpt lat="42.80503" lon="0.30343">
        <ele>958.847</ele>
        <time>2020-04-19T20:21:23Z</time>
      </trkpt>
      <trkpt lat="42.80492" lon="0.30314">
        <ele>946.966</ele>
        <time>2020-04-19T20:21:43Z</time>
      </trkpt>
      <trkpt lat="42.80489" lon="0.30281">
        <ele>950.288</ele>
        <time>2020-04-19T20:22:03Z</time>
      </trkpt>
      <trkpt lat="42.80446" lon="0.30181">
        <ele>960.435</ele>
        <time>2020-04-19T20:22:23Z</time>
      </trkpt>
      <trkpt lat="42.80402" lon="0.30127">
        <ele>945.882</ele>
        <time>2020-04-19T20:22:43Z</time>
      </trkpt>
      <trkpt lat="42.80394" lon="0.30082">
        <ele>966.224</ele>
        <time>2020-04-19T20:23:03Z</time>
      </trkpt>
      <trkpt lat="42.80359" lon="0.30047">
        <ele>958.504</ele>
        <time>2020-04-19T20:23:23Z</time>
      </trkpt>
      <trkpt lat="42.80289" lon="0.29929">
        <ele>949.114</ele>
        <time>2020-04-19T20:23:43Z</time>
      </trkpt>
      <trkpt lat="42.80242" lon="0.29837">
        <ele>948.808</ele>
        <time>2020-04-19T20:24:03Z</time>
      </trkpt>
      <trkpt lat="42.80212" lon="0.29746">
        <ele>961.988</ele>
        <time>2020-04-19T20:24:23Z</time>
      </trkpt>
      <trkpt lat="42.80196" lon="0.29715">
        <ele>957.447</ele>
        <time>2020-04-19T20:24:43Z</time>
      </trkpt>
      <trkpt lat="42.80198" lon="0.29671">
        <ele>959.698</ele>
        <time>2020-04-19T20:25:03Z</time>
      </trkpt>
      <trkpt lat="42.80182" lon="0.29646">
        <ele>963.934</ele>
        <time>2020-04-19T20:25:23Z</time>
      </trkpt>
      <trkpt lat="42.80172" lon="0.29553">
        <ele>980.243</ele>
        <time>2020-04-19T20:25:43Z</time>
      </trkpt>
      <trkpt lat="42.8014" lon="0.29466">
        <ele>957.645</ele>
        <time>2020-04-19T20:26:03Z</time>
      </trkpt>
      <trkpt lat="42.80092" lon="0.29374">
        <ele>966.072</ele>
        <time>2020-04-19T20:26:23Z</time>
      </trkpt>
      <trkpt lat="42.80079" lon="0.29316">
        <ele>952.789</ele>
        <time>2020-04-19T20:26:43Z</time>
      </trkpt>
      <trkpt lat="42.8005" lon="0.29265">
        <ele>951.713</ele>
        <time>2020-04-19T20:27:03Z</time>
      </trkpt>
      <trkpt lat="42.80012" lon="0.29228">
        <ele>951.843</ele>
        <time>2020-04-19T20:27:23Z</time>
      </trkpt>
      <trkpt lat="42.79967" lon="0.29045">
        <ele>952.907</ele>
        <time>2020-04-19T20:27:43Z</time>
      </trkpt>
      <trkpt lat="42.79942" lon="0.28997">
        <ele>954.808</ele>
        <time>2020-04-19T20:28:03Z</time>
      </trkpt>
      <trkpt lat="42.79917" lon="0.28917">
        <ele>945.317</ele>
        <time>2020-04-19T20:28:23Z</time>
      </trkpt>
      <trkpt lat="42.79908" lon="0.28839">
        <ele>953.016</ele>
        <time>2020-04-19T20:28:43Z</time>
      </trkpt>
      <trkpt lat="42.79854" lon="0.28777">
        <ele>950.987</ele>
        <time>2020-04-19T20:29:03Z</time>
      </trkpt>
      <trkpt lat="42.79851" lon="0.28737">
        <ele>953.473</ele>
        <time>2020-04-19T20:29:23Z</time>
      </trkpt>
      <trkpt lat="42.79833" lon="0.28731">
        <ele>957.422</ele>
        <time>2020-04-19T20:29:43Z</time>
      </trkpt>
      <trkpt lat="42.7982" lon="0.28745">
        <ele>956.084</ele>
        <time>2020-04-19T20:30:03Z</time>
      </trkpt>
      <trkpt lat="42.79807" lon="0.28803">
        <ele>955.871</ele>
        <time>2020-04-19T20:30:23Z</time>
      </trkpt>
      <trkpt lat="42.79792" lon="0.28775">
        <ele>959.818</ele>
        <time>2020-04-19T20:30:43Z</time>
      </trkpt>
      <trkpt lat="42.79783" lon="0.28791">
        <ele>960.971</ele>
        <time>2020-04-19T20:31:03Z</time>
      </trkpt>
      <trkpt lat="42.79798" lon="0.28871">
        <ele>956.541</ele>
        <time>2020-04-19T20:31:23Z</time>
      </trkpt>
      <trkpt lat="42.79755" lon="0.28923">
        <ele>965.015</ele>
        <time>2020-04-19T20:31:43Z</time>
      </trkpt>
      <trkpt lat="42.79711" lon="0.28885">
        <ele>968.908</ele>
        <time>2020-04-19T20:32:03Z</time>
      </trkpt>
      <trkpt lat="42.79691" lon="0.28847">
        <ele>968.853</ele>
        <time>2020-04-19T20:32:23Z</time>
      </trkpt>
      <trkpt lat="42.79591" lon="0.28881">
        <ele>992.032</ele>
        <time>2021-02-12T21:28:14Z</time>
      </trkpt>
      <trkpt lat="42.79557" lon="0.28809">
        <ele>1009.033</ele>
        <time>2021-02-12T21:28:34Z</time>
      </trkpt>
      <trkpt lat="42.79497" lon="0.28737">
        <ele>1037.099</ele>
        <time>2021-02-12T21:28:54Z</time>
      </trkpt>
      <trkpt lat="42.79477" lon="0.28689">
        <ele>1046.988</ele>
        <time>2021-02-12T21:29:14Z</time>
      </trkpt>
      <trkpt lat="42.79449" lon="0.28593">
        <ele>1066.71</ele>
        <time>2021-02-12T21:29:34Z</time>
      </trkpt>
      <trkpt lat="42.79433" lon="0.28639">
        <ele>1076.227</ele>
        <time>2021-02-12T21:29:54Z</time>
      </trkpt>
      <trkpt lat="42.79424" lon="0.287">
        <ele>1084.084</ele>
        <time>2021-02-12T21:30:14Z</time>
      </trkpt>
      <trkpt lat="42.79402" lon="0.28685">
        <ele>1096.427</ele>
        <time>2021-02-12T21:30:34Z</time>
      </trkpt>
      <trkpt lat="42.7934" lon="0.28515">
        <ele>1129.768</ele>
        <time>2021-02-12T21:30:54Z</time>
      </trkpt>
      <trkpt lat="42.79321" lon="0.28432">
        <ele>1134.714</ele>
        <time>2021-02-12T21:31:14Z</time>
      </trkpt>
      <trkpt lat="42.79313" lon="0.28352">
        <ele>1137.708</ele>
        <time>2021-02-12T21:31:34Z</time>
      </trkpt>
      <trkpt lat="42.79279" lon="0.28299">
        <ele>1147.748</ele>
        <time>2021-02-12T21:31:54Z</time>
      </trkpt>
      <trkpt lat="42.79268" lon="0.28223">
        <ele>1152.237</ele>
        <time>2021-02-12T21:32:14Z</time>
      </trkpt>
      <trkpt lat="42.79211" lon="0.28209">
        <ele>1168.798</ele>
        <time>2021-02-12T21:32:34Z</time>
      </trkpt>
      <trkpt lat="42.79183" lon="0.28181">
        <ele>1177.854</ele>
        <time>2021-02-12T21:32:54Z</time>
      </trkpt>
      <trkpt lat="42.79184" lon="0.2821">
        <ele>1178.183</ele>
        <time>2021-02-12T21:33:14Z</time>
      </trkpt>
      <trkpt lat="42.7919" lon="0.28253">
        <ele>1176.765</ele>
        <time>2021-02-12T21:33:34Z</time>
      </trkpt>
      <trkpt lat="42.79184" lon="0.28343">
        <ele>1189.572</ele>
        <time>2021-02-12T21:33:54Z</time>
      </trkpt>
      <trkpt lat="42.79191" lon="0.28384">
        <ele>1190.479</ele>
        <time>2021-02-12T21:34:14Z</time>
      </trkpt>
      <trkpt lat="42.7919" lon="0.28464">
        <ele>1199.146</ele>
        <time>2021-02-12T21:34:34Z</time>
      </trkpt>
      <trkpt lat="42.79195" lon="0.28494">
        <ele>1200.188</ele>
        <time>2021-02-12T21:34:54Z</time>
      </trkpt>
      <trkpt lat="42.79172" lon="0.28603">
        <ele>1210.616</ele>
        <time>2021-02-12T21:35:14Z</time>
      </trkpt>
      <trkpt lat="42.79157" lon="0.28655">
        <ele>1223.008</ele>
        <time>2021-02-12T21:35:34Z</time>
      </trkpt>
      <trkpt lat="42.79164" lon="0.28736">
        <ele>1223.01</ele>
        <time>2021-02-12T21:35:54Z</time>
      </trkpt>
      <trkpt lat="42.79158" lon="0.28888">
        <ele>1223.529</ele>
        <time>2021-02-12T21:36:14Z</time>
      </trkpt>
      <trkpt lat="42.79143" lon="0.28943">
        <ele>1232.03</ele>
        <time>2021-02-12T21:36:34Z</time>
      </trkpt>
      <trkpt lat="42.79171" lon="0.29023">
        <ele>1218.716</ele>
        <time>2021-02-12T21:36:54Z</time>
      </trkpt>
      <trkpt lat="42.79181" lon="0.29077">
        <ele>1219.425</ele>
        <time>2021-02-12T21:37:14Z</time>
      </trkpt>
      <trkpt lat="42.79181" lon="0.29096">
        <ele>1221.077</ele>
        <time>2021-02-12T21:37:34Z</time>
      </trkpt>
      <trkpt lat="42.79191" lon="0.29123">
        <ele>1218.194</ele>
        <time>2021-02-12T21:37:54Z</time>
      </trkpt>
      <trkpt lat="42.79183" lon="0.292">
        <ele>1222.131</ele>
        <time>2021-02-12T21:38:14Z</time>
      </trkpt>
      <trkpt lat="42.79183" lon="0.29245">
        <ele>1218.626</ele>
        <time>2021-02-12T21:38:34Z</time>
      </trkpt>
      <trkpt lat="42.79171" lon="0.29279">
        <ele>1220.347</ele>
        <time>2021-02-12T21:38:54Z</time>
      </trkpt>
      <trkpt lat="42.79153" lon="0.29298">
        <ele>1227.011</ele>
        <time>2021-02-12T21:39:14Z</time>
      </trkpt>
      <trkpt lat="42.79147" lon="0.29346">
        <ele>1226.608</ele>
        <time>2021-02-12T21:39:34Z</time>
      </trkpt>
      <trkpt lat="42.79155" lon="0.29401">
        <ele>1222.228</ele>
        <time>2021-02-12T21:39:54Z</time>
      </trkpt>
      <trkpt lat="42.79126" lon="0.29571">
        <ele>1224.947</ele>
        <time>2021-02-12T21:40:14Z</time>
      </trkpt>
      <trkpt lat="42.79106" lon="0.2963">
        <ele>1223.998</ele>
        <time>2021-02-12T21:40:34Z</time>
      </trkpt>
      <trkpt lat="42.79094" lon="0.29723">
        <ele>1208.974</ele>
        <time>2021-02-12T21:40:54Z</time>
      </trkpt>
      <trkpt lat="42.79072" lon="0.29757">
        <ele>1210.873</ele>
        <time>2021-02-12T21:41:14Z</time>
      </trkpt>
      <trkpt lat="42.79058" lon="0.29783">
        <ele>1207.985</ele>
        <time>2021-02-12T21:41:34Z</time>
      </trkpt>
      <trkpt lat="42.78998" lon="0.29808">
        <ele>1225.632</ele>
        <time>2021-02-12T21:41:54Z</time>
      </trkpt>
      <trkpt lat="42.78934" lon="0.29923">
        <ele>1232.049</ele>
        <time>2021-02-12T21:42:14Z</time>
      </trkpt>
      <trkpt lat="42.78899" lon="0.30042">
        <ele>1235.976</ele>
        <time>2021-02-12T21:42:34Z</time>
      </trkpt>
      <trkpt lat="42.78903" lon="0.30118">
        <ele>1225.89</ele>
        <time>2021-02-12T21:42:54Z</time>
      </trkpt>
      <trkpt lat="42.78872" lon="0.3021">
        <ele>1223.919</ele>
        <time>2021-02-12T21:43:14Z</time>
      </trkpt>
      <trkpt lat="42.78863" lon="0.30284">
        <ele>1207.208</ele>
        <time>2021-02-12T21:43:34Z</time>
      </trkpt>
      <trkpt lat="42.78843" lon="0.3031">
        <ele>1205.933</ele>
        <time>2021-02-12T21:43:54Z</time>
      </trkpt>
      <trkpt lat="42.78777" lon="0.30328">
        <ele>1209.642</ele>
        <time>2021-02-12T21:44:14Z</time>
      </trkpt>
      <trkpt lat="42.78711" lon="0.30381">
        <ele>1195.553</ele>
        <time>2021-02-12T21:44:34Z</time>
      </trkpt>
      <trkpt lat="42.78488" lon="0.30479">
        <ele>1179.639</ele>
        <time>2021-02-12T21:44:54Z</time>
      </trkpt>
      <trkpt lat="42.78437" lon="0.30557">
        <ele>1164.688</ele>
        <time>2021-02-12T21:45:14Z</time>
      </trkpt>
      <trkpt lat="42.78375" lon="0.30622">
        <ele>1159.71</ele>
        <time>2021-02-12T21:45:34Z</time>
      </trkpt>
      <trkpt lat="42.78381" lon="0.30637">
        <ele>1152.167</ele>
        <time>2021-02-12T21:45:54Z</time>
      </trkpt>
      <trkpt lat="42.78459" lon="0.30584">
        <ele>1147.844</ele>
        <time>2021-02-12T21:46:14Z</time>
      </trkpt>
      <trkpt lat="42.7846" lon="0.30596">
        <ele>1144.317</ele>
        <time>2021-02-12T21:46:34Z</time>
      </trkpt>
      <trkpt lat="42.78363" lon="0.30717">
        <ele>1144.987</ele>
        <time>2021-02-12T21:46:54Z</time>
      </trkpt>
      <trkpt lat="42.78286" lon="0.30722">
        <ele>1155.315</ele>
        <time>2020-04-19T20:51:03Z</time>
      </trkpt>
      <trkpt lat="42.78251" lon="0.30718">
        <ele>1160.608</ele>
        <time>2021-02-12T21:47:34Z</time>
      </trkpt>
      <trkpt lat="42.782" lon="0.30758">
        <ele>1161.247</ele>
        <time>2021-02-12T21:47:54Z</time>
      </trkpt>
      <trkpt lat="42.78131" lon="0.30762">
        <ele>1170.226</ele>
        <time>2021-02-12T21:48:14Z</time>
      </trkpt>
      <trkpt lat="42.78099" lon="0.30746">
        <ele>1172.097</ele>
        <time>2021-02-12T21:48:34Z</time>
      </trkpt>
      <trkpt lat="42.78047" lon="0.3073">
        <ele>1182.553</ele>
        <time>2021-02-12T21:48:54Z</time>
      </trkpt>
      <trkpt lat="42.78036" lon="0.3068">
        <ele>1182.612</ele>
        <time>2020-04-19T20:53:03Z</time>
      </trkpt>
      <trkpt lat="42.78005" lon="0.30659">
        <ele>1183.994</ele>
        <time>2020-04-19T20:53:23Z</time>
      </trkpt>
      <trkpt lat="42.77976" lon="0.30618">
        <ele>1194.751</ele>
        <time>2020-04-19T20:53:43Z</time>
      </trkpt>
      <trkpt lat="42.7782" lon="0.30577">
        <ele>1205.138</ele>
        <time>2020-04-19T20:54:03Z</time>
      </trkpt>
      <trkpt lat="42.77751" lon="0.30603">
        <ele>1198.482</ele>
        <time>2020-04-19T20:54:23Z</time>
      </trkpt>
      <trkpt lat="42.77683" lon="0.3059">
        <ele>1193.143</ele>
        <time>2020-04-19T20:54:43Z</time>
      </trkpt>
      <trkpt lat="42.77617" lon="0.30547">
        <ele>1212.617</ele>
        <time>2020-04-19T20:55:03Z</time>
      </trkpt>
      <trkpt lat="42.77545" lon="0.30519">
        <ele>1219.608</ele>
        <time>2020-04-19T20:55:23Z</time>
      </trkpt>
      <trkpt lat="42.77466" lon="0.30519">
        <ele>1232.474</ele>
        <time>2020-04-19T20:55:43Z</time>
      </trkpt>
      <trkpt lat="42.77384" lon="0.30575">
        <ele>1230.443</ele>
        <time>2020-04-19T20:56:03Z</time>
      </trkpt>
      <trkpt lat="42.77343" lon="0.30558">
        <ele>1231.734</ele>
        <time>2020-04-19T20:56:23Z</time>
      </trkpt>
      <trkpt lat="42.77304" lon="0.30515">
        <ele>1237.58</ele>
        <time>2020-04-19T20:56:43Z</time>
      </trkpt>
      <trkpt lat="42.77214" lon="0.30468">
        <ele>1253.199</ele>
        <time>2020-04-19T20:57:03Z</time>
      </trkpt>
      <trkpt lat="42.77145" lon="0.30453">
        <ele>1255.541</ele>
        <time>2020-04-19T20:57:23Z</time>
      </trkpt>
      <trkpt lat="42.77008" lon="0.30386">
        <ele>1288.288</ele>
        <time>2020-04-19T20:57:43Z</time>
      </trkpt>
      <trkpt lat="42.76907" lon="0.30446">
        <ele>1265.215</ele>
        <time>2020-04-19T20:58:03Z</time>
      </trkpt>
      <trkpt lat="42.76853" lon="0.30459">
        <ele>1266.282</ele>
        <time>2020-04-19T20:58:23Z</time>
      </trkpt>
      <trkpt lat="42.76781" lon="0.30418">
        <ele>1272.943</ele>
        <time>2020-04-19T20:58:43Z</time>
      </trkpt>
      <trkpt lat="42.76729" lon="0.30401">
        <ele>1282.117</ele>
        <time>2020-04-19T20:59:03Z</time>
      </trkpt>
      <trkpt lat="42.76649" lon="0.30348">
        <ele>1285.208</ele>
        <time>2020-04-19T20:59:23Z</time>
      </trkpt>
      <trkpt lat="42.76581" lon="0.30247">
        <ele>1309.154</ele>
        <time>2020-04-19T20:59:43Z</time>
      </trkpt>
      <trkpt lat="42.76535" lon="0.3024">
        <ele>1313.223</ele>
        <time>2020-04-19T21:00:03Z</time>
      </trkpt>
      <trkpt lat="42.76477" lon="0.30217">
        <ele>1318.594</ele>
        <time>2020-04-19T21:00:23Z</time>
      </trkpt>
      <trkpt lat="42.76428" lon="0.30219">
        <ele>1320.61</ele>
        <time>2020-04-19T21:00:43Z</time>
      </trkpt>
      <trkpt lat="42.76444" lon="0.3027">
        <ele>1296.759</ele>
        <time>2020-04-19T21:01:03Z</time>
      </trkpt>
      <trkpt lat="42.7646" lon="0.30276">
        <ele>1295.691</ele>
        <time>2020-04-19T21:01:23Z</time>
      </trkpt>
      <trkpt lat="42.76468" lon="0.30321">
        <ele>1292.938</ele>
        <time>2020-04-19T21:01:43Z</time>
      </trkpt>
      <trkpt lat="42.76466" lon="0.30353">
        <ele>1298.025</ele>
        <time>2020-04-19T21:02:03Z</time>
      </trkpt>
      <trkpt lat="42.7648" lon="0.30373">
        <ele>1298.265</ele>
        <time>2020-04-19T21:02:23Z</time>
      </trkpt>
      <trkpt lat="42.76484" lon="0.30397">
        <ele>1299.168</ele>
        <time>2020-04-19T21:02:43Z</time>
      </trkpt>
      <trkpt lat="42.76494" lon="0.30411">
        <ele>1296.814</ele>
        <time>2020-04-19T21:03:03Z</time>
      </trkpt>
      <trkpt lat="42.76491" lon="0.30443">
        <ele>1314.008</ele>
        <time>2020-04-19T21:03:23Z</time>
      </trkpt>
      <trkpt lat="42.76556" lon="0.30495">
        <ele>1303.572</ele>
        <time>2020-04-19T21:03:43Z</time>
      </trkpt>
      <trkpt lat="42.76548" lon="0.30508">
        <ele>1325.611</ele>
        <time>2020-04-19T21:04:03Z</time>
      </trkpt>
      <trkpt lat="42.7655" lon="0.30516">
        <ele>1326.532</ele>
        <time>2020-04-19T21:04:23Z</time>
      </trkpt>
      <trkpt lat="42.76451" lon="0.30445">
        <ele>1323.198</ele>
        <time>2020-04-19T21:04:43Z</time>
      </trkpt>
      <trkpt lat="42.76369" lon="0.30399">
        <ele>1326.937</ele>
        <time>2020-04-19T21:05:03Z</time>
      </trkpt>
      <trkpt lat="42.76311" lon="0.30359">
        <ele>1323.479</ele>
        <time>2020-04-19T21:05:23Z</time>
      </trkpt>
      <trkpt lat="42.7625" lon="0.30355">
        <ele>1318.016</ele>
        <time>2020-04-19T21:05:43Z</time>
      </trkpt>
      <trkpt lat="42.76214" lon="0.30375">
        <ele>1318.733</ele>
        <time>2020-04-19T21:06:03Z</time>
      </trkpt>
      <trkpt lat="42.76158" lon="0.30451">
        <ele>1327.043</ele>
        <time>2020-04-19T21:06:23Z</time>
      </trkpt>
      <trkpt lat="42.76066" lon="0.30519">
        <ele>1335.864</ele>
        <time>2020-04-19T21:06:43Z</time>
      </trkpt>
      <trkpt lat="42.76012" lon="0.30552">
        <ele>1343.11</ele>
        <time>2020-04-19T21:07:03Z</time>
      </trkpt>
      <trkpt lat="42.75956" lon="0.30573">
        <ele>1345.308</ele>
        <time>2020-04-19T21:07:23Z</time>
      </trkpt>
      <trkpt lat="42.75818" lon="0.30525">
        <ele>1349.89</ele>
        <time>2020-04-19T21:07:43Z</time>
      </trkpt>
      <trkpt lat="42.7575" lon="0.30511">
        <ele>1343.679</ele>
        <time>2020-04-19T21:08:03Z</time>
      </trkpt>
      <trkpt lat="42.75691" lon="0.30512">
        <ele>1349.38</ele>
        <time>2020-04-19T21:08:23Z</time>
      </trkpt>
      <trkpt lat="42.7564" lon="0.30502">
        <ele>1353.986</ele>
        <time>2020-04-19T21:08:43Z</time>
      </trkpt>
      <trkpt lat="42.75584" lon="0.30509">
        <ele>1350.295</ele>
        <time>2020-04-19T21:09:03Z</time>
      </trkpt>
      <trkpt lat="42.75461" lon="0.30472">
        <ele>1357.297</ele>
        <time>2020-04-19T21:09:23Z</time>
      </trkpt>
      <trkpt lat="42.75396" lon="0.30479">
        <ele>1354.094</ele>
        <time>2020-04-19T21:09:43Z</time>
      </trkpt>
      <trkpt lat="42.75199" lon="0.30569">
        <ele>1358.391</ele>
        <time>2020-04-19T21:10:03Z</time>
      </trkpt>
      <trkpt lat="42.75186" lon="0.30557">
        <ele>1357.529</ele>
        <time>2021-02-12T22:06:34Z</time>
      </trkpt>
      <trkpt lat="42.75083" lon="0.30691">
        <ele>1365.4</ele>
        <time>2021-02-12T22:06:54Z</time>
      </trkpt>
      <trkpt lat="42.74946" lon="0.30794">
        <ele>1387.42</ele>
        <time>2021-02-12T22:07:14Z</time>
      </trkpt>
      <trkpt lat="42.74859" lon="0.30769">
        <ele>1376.508</ele>
        <time>2021-02-12T22:07:34Z</time>
      </trkpt>
      <trkpt lat="42.74832" lon="0.30784">
        <ele>1380.288</ele>
        <time>2021-02-12T22:07:54Z</time>
      </trkpt>
      <trkpt lat="42.74788" lon="0.3077">
        <ele>1377.357</ele>
        <time>2021-02-12T22:08:14Z</time>
      </trkpt>
      <trkpt lat="42.74779" lon="0.30749">
        <ele>1370.048</ele>
        <time>2021-02-12T22:08:34Z</time>
      </trkpt>
      <trkpt lat="42.74738" lon="0.30752">
        <ele>1370.394</ele>
        <time>2021-02-12T22:08:54Z</time>
      </trkpt>
      <trkpt lat="42.74715" lon="0.30771">
        <ele>1377.853</ele>
        <time>2021-02-12T22:09:14Z</time>
      </trkpt>
      <trkpt lat="42.74625" lon="0.30779">
        <ele>1378.165</ele>
        <time>2021-02-12T22:09:34Z</time>
      </trkpt>
      <trkpt lat="42.74552" lon="0.30751">
        <ele>1370.662</ele>
        <time>2021-02-12T22:09:54Z</time>
      </trkpt>
      <trkpt lat="42.74464" lon="0.30807">
        <ele>1386.029</ele>
        <time>2021-02-12T22:10:14Z</time>
      </trkpt>
      <trkpt lat="42.7439" lon="0.30797">
        <ele>1384.453</ele>
        <time>2021-02-12T22:10:34Z</time>
      </trkpt>
      <trkpt lat="42.74297" lon="0.30835">
        <ele>1387.904</ele>
        <time>2021-02-12T22:10:54Z</time>
      </trkpt>
      <trkpt lat="42.74271" lon="0.30867">
        <ele>1399.114</ele>
        <time>2021-02-12T22:11:14Z</time>
      </trkpt>
      <trkpt lat="42.74201" lon="0.3087">
        <ele>1391.308</ele>
        <time>2021-02-12T22:11:34Z</time>
      </trkpt>
      <trkpt lat="42.74119" lon="0.30918">
        <ele>1394.381</ele>
        <time>2021-02-12T22:11:54Z</time>
      </trkpt>
      <trkpt lat="42.7408" lon="0.30925">
        <ele>1397.12</ele>
        <time>2021-02-12T22:12:14Z</time>
      </trkpt>
      <trkpt lat="42.73978" lon="0.3093">
        <ele>1398.561</ele>
        <time>2021-02-12T22:12:34Z</time>
      </trkpt>
      <trkpt lat="42.73935" lon="0.30895">
        <ele>1392.857</ele>
        <time>2021-02-12T22:12:54Z</time>
      </trkpt>
      <trkpt lat="42.73976" lon="0.30882">
        <ele>1390.556</ele>
        <time>2021-02-12T22:13:14Z</time>
      </trkpt>
      <trkpt lat="42.74006" lon="0.30851">
        <ele>1386.168</ele>
        <time>2021-02-12T22:13:34Z</time>
      </trkpt>
      <trkpt lat="42.74034" lon="0.30789">
        <ele>1390.775</ele>
        <time>2021-02-12T22:13:54Z</time>
      </trkpt>
      <trkpt lat="42.74054" lon="0.30774">
        <ele>1392.682</ele>
        <time>2021-02-12T22:14:14Z</time>
      </trkpt>
      <trkpt lat="42.74014" lon="0.30768">
        <ele>1392.879</ele>
        <time>2020-04-19T21:15:23Z</time>
      </trkpt>
      <trkpt lat="42.73945" lon="0.30772">
        <ele>1393.705</ele>
        <time>2020-04-19T21:15:43Z</time>
      </trkpt>
      <trkpt lat="42.73891" lon="0.30751">
        <ele>1398.825</ele>
        <time>2020-04-19T21:16:03Z</time>
      </trkpt>
      <trkpt lat="42.73863" lon="0.30757">
        <ele>1400.708</ele>
        <time>2020-04-19T21:16:23Z</time>
      </trkpt>
      <trkpt lat="42.73833" lon="0.30738">
        <ele>1418.963</ele>
        <time>2020-04-19T21:16:43Z</time>
      </trkpt>
      <trkpt lat="42.73795" lon="0.30742">
        <ele>1426.932</ele>
        <time>2020-04-19T21:17:03Z</time>
      </trkpt>
      <trkpt lat="42.73753" lon="0.30736">
        <ele>1423.383</ele>
        <time>2020-04-19T21:17:23Z</time>
      </trkpt>
      <trkpt lat="42.73679" lon="0.30736">
        <ele>1427.249</ele>
        <time>2020-04-19T21:17:43Z</time>
      </trkpt>
      <trkpt lat="42.73626" lon="0.3073">
        <ele>1438.638</ele>
        <time>2020-04-19T21:18:03Z</time>
      </trkpt>
      <trkpt lat="42.73589" lon="0.30731">
        <ele>1435.93</ele>
        <time>2020-04-19T21:18:23Z</time>
      </trkpt>
      <trkpt lat="42.73535" lon="0.30744">
        <ele>1443.737</ele>
        <time>2020-04-19T21:18:43Z</time>
      </trkpt>
      <trkpt lat="42.7349" lon="0.30731">
        <ele>1450.884</ele>
        <time>2020-04-19T21:19:03Z</time>
      </trkpt>
      <trkpt lat="42.73457" lon="0.30743">
        <ele>1457.897</ele>
        <time>2020-04-19T21:19:23Z</time>
      </trkpt>
      <trkpt lat="42.73413" lon="0.30765">
        <ele>1444.123</ele>
        <time>2020-04-19T21:19:43Z</time>
      </trkpt>
      <trkpt lat="42.73382" lon="0.30769">
        <ele>1438.925</ele>
        <time>2020-04-19T21:20:03Z</time>
      </trkpt>
      <trkpt lat="42.73306" lon="0.30714">
        <ele>1451.608</ele>
        <time>2020-04-19T21:20:23Z</time>
      </trkpt>
      <trkpt lat="42.73302" lon="0.30693">
        <ele>1453.725</ele>
        <time>2020-04-19T21:20:43Z</time>
      </trkpt>
      <trkpt lat="42.73309" lon="0.30671">
        <ele>1456.194</ele>
        <time>2020-04-19T21:21:03Z</time>
      </trkpt>
      <trkpt lat="42.73304" lon="0.30659">
        <ele>1466.975</ele>
        <time>2020-04-19T21:21:23Z</time>
      </trkpt>
      <trkpt lat="42.73289" lon="0.30651">
        <ele>1465.811</ele>
        <time>2020-04-19T21:21:43Z</time>
      </trkpt>
      <trkpt lat="42.73282" lon="0.30637">
        <ele>1466.93</ele>
        <time>2020-04-19T21:22:03Z</time>
      </trkpt>
      <trkpt lat="42.73259" lon="0.30614">
        <ele>1467.462</ele>
        <time>2020-04-19T21:22:23Z</time>
      </trkpt>
      <trkpt lat="42.73237" lon="0.30581">
        <ele>1470.299</ele>
        <time>2020-04-19T21:22:43Z</time>
      </trkpt>
      <trkpt lat="42.73188" lon="0.30532">
        <ele>1476.226</ele>
        <time>2020-04-19T21:23:03Z</time>
      </trkpt>
      <trkpt lat="42.73151" lon="0.30506">
        <ele>1473.776</ele>
        <time>2020-04-19T21:23:23Z</time>
      </trkpt>
      <trkpt lat="42.7312" lon="0.30487">
        <ele>1478.89</ele>
        <time>2020-04-19T21:23:43Z</time>
      </trkpt>
      <trkpt lat="42.73105" lon="0.30467">
        <ele>1479.619</ele>
        <time>2020-04-19T21:24:03Z</time>
      </trkpt>
      <trkpt lat="42.73068" lon="0.30459">
        <ele>1476.008</ele>
        <time>2020-04-19T21:24:23Z</time>
      </trkpt>
      <trkpt lat="42.73055" lon="0.30443">
        <ele>1477.943</ele>
        <time>2020-04-19T21:24:43Z</time>
      </trkpt>
      <trkpt lat="42.73024" lon="0.30438">
        <ele>1478.832</ele>
        <time>2020-04-19T21:25:03Z</time>
      </trkpt>
      <trkpt lat="42.72988" lon="0.30419">
        <ele>1482.263</ele>
        <time>2020-04-19T21:25:23Z</time>
      </trkpt>
      <trkpt lat="42.72949" lon="0.304">
        <ele>1489.959</ele>
        <time>2020-04-19T21:25:43Z</time>
      </trkpt>
      <trkpt lat="42.72922" lon="0.30392">
        <ele>1488.438</ele>
        <time>2020-04-19T21:26:03Z</time>
      </trkpt>
      <trkpt lat="42.72898" lon="0.30388">
        <ele>1493.94</ele>
        <time>2020-04-19T21:26:23Z</time>
      </trkpt>
      <trkpt lat="42.72858" lon="0.30347">
        <ele>1498.127</ele>
        <time>2020-04-19T21:26:43Z</time>
      </trkpt>
      <trkpt lat="42.72835" lon="0.30307">
        <ele>1512.944</ele>
        <time>2020-04-19T21:27:03Z</time>
      </trkpt>
      <trkpt lat="42.72773" lon="0.30257">
        <ele>1510.117</ele>
        <time>2020-04-19T21:27:23Z</time>
      </trkpt>
      <trkpt lat="42.72758" lon="0.30249">
        <ele>1510.987</ele>
        <time>2020-04-19T21:27:43Z</time>
      </trkpt>
      <trkpt lat="42.72739" lon="0.30244">
        <ele>1503.115</ele>
        <time>2020-04-19T21:28:03Z</time>
      </trkpt>
      <trkpt lat="42.72714" lon="0.30227">
        <ele>1504.308</ele>
        <time>2020-04-19T21:28:23Z</time>
      </trkpt>
      <trkpt lat="42.72691" lon="0.30206">
        <ele>1503.447</ele>
        <time>2020-04-19T21:28:43Z</time>
      </trkpt>
      <trkpt lat="42.72675" lon="0.30193">
        <ele>1501.726</ele>
        <time>2020-04-19T21:29:03Z</time>
      </trkpt>
      <trkpt lat="42.72655" lon="0.30136">
        <ele>1502.927</ele>
        <time>2020-04-19T21:29:23Z</time>
      </trkpt>
      <trkpt lat="42.72634" lon="0.30113">
        <ele>1505.353</ele>
        <time>2020-04-19T21:29:43Z</time>
      </trkpt>
      <trkpt lat="42.72609" lon="0.30093">
        <ele>1501.872</ele>
        <time>2020-04-19T21:30:03Z</time>
      </trkpt>
      <trkpt lat="42.72581" lon="0.30093">
        <ele>1496.654</ele>
        <time>2020-04-19T21:30:23Z</time>
      </trkpt>
      <trkpt lat="42.72559" lon="0.30079">
        <ele>1505.021</ele>
        <time>2020-04-19T21:30:43Z</time>
      </trkpt>
      <trkpt lat="42.72488" lon="0.30059">
        <ele>1505.668</ele>
        <time>2020-04-19T21:31:03Z</time>
      </trkpt>
      <trkpt lat="42.72457" lon="0.30031">
        <ele>1512.333</ele>
        <time>2020-04-19T21:31:23Z</time>
      </trkpt>
      <trkpt lat="42.72432" lon="0.30016">
        <ele>1513.423</ele>
        <time>2020-04-19T21:31:43Z</time>
      </trkpt>
      <trkpt lat="42.72383" lon="0.29947">
        <ele>1525.915</ele>
        <time>2020-04-19T21:32:03Z</time>
      </trkpt>
      <trkpt lat="42.72296" lon="0.299">
        <ele>1524.408</ele>
        <time>2020-04-19T21:32:23Z</time>
      </trkpt>
      <trkpt lat="42.72245" lon="0.29825">
        <ele>1522.349</ele>
        <time>2020-04-19T21:32:43Z</time>
      </trkpt>
      <trkpt lat="42.72213" lon="0.29792">
        <ele>1532.548</ele>
        <time>2020-04-19T21:33:03Z</time>
      </trkpt>
      <trkpt lat="42.72153" lon="0.29799">
        <ele>1526.499</ele>
        <time>2020-04-19T21:33:23Z</time>
      </trkpt>
      <trkpt lat="42.7213" lon="0.2977">
        <ele>1530.275</ele>
        <time>2020-04-19T21:33:43Z</time>
      </trkpt>
      <trkpt lat="42.72091" lon="0.2977">
        <ele>1532.074</ele>
        <time>2020-04-19T21:34:03Z</time>
      </trkpt>
      <trkpt lat="42.72034" lon="0.29745">
        <ele>1542.376</ele>
        <time>2020-04-19T21:34:23Z</time>
      </trkpt>
      <trkpt lat="42.71899" lon="0.29739">
        <ele>1536.023</ele>
        <time>2020-04-19T21:34:43Z</time>
      </trkpt>
      <trkpt lat="42.7179" lon="0.29723">
        <ele>1541.71</ele>
        <time>2020-04-19T21:35:03Z</time>
      </trkpt>
      <trkpt lat="42.71728" lon="0.29752">
        <ele>1533.576</ele>
        <time>2020-04-19T21:35:23Z</time>
      </trkpt>
      <trkpt lat="42.71704" lon="0.2975">
        <ele>1534.29</ele>
        <time>2020-04-19T21:35:43Z</time>
      </trkpt>
      <trkpt lat="42.71671" lon="0.29726">
        <ele>1541.819</ele>
        <time>2020-04-19T21:36:03Z</time>
      </trkpt>
      <trkpt lat="42.71575" lon="0.29713">
        <ele>1549.708</ele>
        <time>2020-04-19T21:36:23Z</time>
      </trkpt>
      <trkpt lat="42.71476" lon="0.29679">
        <ele>1552.233</ele>
        <time>2020-04-19T21:36:43Z</time>
      </trkpt>
      <trkpt lat="42.71423" lon="0.29674">
        <ele>1550.842</ele>
        <time>2020-04-19T21:37:03Z</time>
      </trkpt>
      <trkpt lat="42.71397" lon="0.29656">
        <ele>1556.613</ele>
        <time>2020-04-19T21:37:23Z</time>
      </trkpt>
      <trkpt lat="42.71373" lon="0.29612">
        <ele>1562.319</ele>
        <time>2020-04-19T21:37:43Z</time>
      </trkpt>
      <trkpt lat="42.7134" lon="0.29596">
        <ele>1565.818</ele>
        <time>2020-04-19T21:38:03Z</time>
      </trkpt>
      <trkpt lat="42.71251" lon="0.29633">
        <ele>1559.48</ele>
        <time>2020-04-19T21:38:23Z</time>
      </trkpt>
      <trkpt lat="42.71164" lon="0.29653">
        <ele>1565.457</ele>
        <time>2020-04-19T21:38:43Z</time>
      </trkpt>
      <trkpt lat="42.71052" lon="0.29656">
        <ele>1560.214</ele>
        <time>2020-04-19T21:39:03Z</time>
      </trkpt>
      <trkpt lat="42.71011" lon="0.29643">
        <ele>1559.875</ele>
        <time>2020-04-19T21:39:23Z</time>
      </trkpt>
      <trkpt lat="42.70971" lon="0.29594">
        <ele>1557.428</ele>
        <time>2020-04-19T21:39:43Z</time>
      </trkpt>
      <trkpt lat="42.70895" lon="0.29553">
        <ele>1553.32</ele>
        <time>2020-04-19T21:40:03Z</time>
      </trkpt>
      <trkpt lat="42.70797" lon="0.29433">
        <ele>1560.008</ele>
        <time>2020-04-19T21:40:23Z</time>
      </trkpt>
      <trkpt lat="42.7072" lon="0.29379">
        <ele>1565.143</ele>
        <time>2020-04-19T21:40:43Z</time>
      </trkpt>
      <trkpt lat="42.70698" lon="0.29326">
        <ele>1567.722</ele>
        <time>2021-02-12T22:40:14Z</time>
      </trkpt>
      <trkpt lat="42.7071" lon="0.29263">
        <ele>1580.663</ele>
        <time>2021-02-12T22:40:34Z</time>
      </trkpt>
      <trkpt lat="42.70657" lon="0.29283">
        <ele>1573.699</ele>
        <time>2021-02-12T22:40:54Z</time>
      </trkpt>
      <trkpt lat="42.70574" lon="0.29272">
        <ele>1580.678</ele>
        <time>2020-04-19T21:41:43Z</time>
      </trkpt>
      <trkpt lat="42.70539" lon="0.29266">
        <ele>1583.32</ele>
        <time>2020-04-19T21:42:03Z</time>
      </trkpt>
      <trkpt lat="42.70462" lon="0.29279">
        <ele>1595.757</ele>
        <time>2020-04-19T21:42:23Z</time>
      </trkpt>
      <trkpt lat="42.70415" lon="0.29311">
        <ele>1603.814</ele>
        <time>2020-04-19T21:42:43Z</time>
      </trkpt>
      <trkpt lat="42.70365" lon="0.29332">
        <ele>1611.147</ele>
        <time>2020-04-19T21:43:03Z</time>
      </trkpt>
      <trkpt lat="42.70347" lon="0.29368">
        <ele>1611.829</ele>
        <time>2021-02-12T22:42:54Z</time>
      </trkpt>
      <trkpt lat="42.70314" lon="0.29333">
        <ele>1626.621</ele>
        <time>2020-04-19T21:43:43Z</time>
      </trkpt>
      <trkpt lat="42.70302" lon="0.29366">
        <ele>1623.208</ele>
        <time>2021-02-12T22:43:34Z</time>
      </trkpt>
      <trkpt lat="42.70274" lon="0.29385">
        <ele>1628.23</ele>
        <time>2021-02-12T22:43:54Z</time>
      </trkpt>
      <trkpt lat="42.70129" lon="0.29386">
        <ele>1660.999</ele>
        <time>2021-02-12T22:44:14Z</time>
      </trkpt>
      <trkpt lat="42.70088" lon="0.29364">
        <ele>1676.64</ele>
        <time>2021-02-12T22:44:34Z</time>
      </trkpt>
      <trkpt lat="42.70144" lon="0.29258">
        <ele>1684.786</ele>
        <time>2020-04-19T21:47:23Z</time>
      </trkpt>
      <trkpt lat="42.70115" lon="0.29244">
        <ele>1699.985</ele>
        <time>2021-02-12T22:45:14Z</time>
      </trkpt>
      <trkpt lat="42.70047" lon="0.29251">
        <ele>1711.087</ele>
        <time>2020-04-19T21:48:03Z</time>
      </trkpt>
      <trkpt lat="42.70082" lon="0.29194">
        <ele>1736.384</ele>
        <time>2020-04-19T21:48:23Z</time>
      </trkpt>
      <trkpt lat="42.7013" lon="0.29142">
        <ele>1741.321</ele>
        <time>2020-04-19T21:48:43Z</time>
      </trkpt>
      <trkpt lat="42.70098" lon="0.29143">
        <ele>1744.562</ele>
        <time>2020-04-19T21:49:03Z</time>
      </trkpt>
      <trkpt lat="42.70075" lon="0.29147">
        <ele>1759.583</ele>
        <time>2020-04-19T21:49:23Z</time>
      </trkpt>
      <trkpt lat="42.7005" lon="0.29141">
        <ele>1769.011</ele>
        <time>2020-04-19T21:49:43Z</time>
      </trkpt>
      <trkpt lat="42.70007" lon="0.2917">
        <ele>1770.508</ele>
        <time>2021-02-12T22:47:34Z</time>
      </trkpt>
      <trkpt lat="42.69993" lon="0.29195">
        <ele>1769.832</ele>
        <time>2020-04-19T21:50:23Z</time>
      </trkpt>
      <trkpt lat="42.69872" lon="0.29208">
        <ele>1804.871</ele>
        <time>2020-04-19T21:50:43Z</time>
      </trkpt>
      <trkpt lat="42.69822" lon="0.29232">
        <ele>1814.762</ele>
        <time>2020-04-19T21:51:03Z</time>
      </trkpt>
      <trkpt lat="42.69794" lon="0.2922">
        <ele>1825.858</ele>
        <time>2020-04-19T21:51:23Z</time>
      </trkpt>
      <trkpt lat="42.69767" lon="0.29248">
        <ele>1822.777</ele>
        <time>2020-04-19T21:51:43Z</time>
      </trkpt>
      <trkpt lat="42.6973" lon="0.29251">
        <ele>1818.969</ele>
        <time>2020-04-19T21:52:03Z</time>
      </trkpt>
      <trkpt lat="42.69701" lon="0.29281">
        <ele>1819.316</ele>
        <time>2020-04-19T21:52:23Z</time>
      </trkpt>
      <trkpt lat="42.69651" lon="0.29261">
        <ele>1839.943</ele>
        <time>2020-04-19T21:52:43Z</time>
      </trkpt>
      <trkpt lat="42.69603" lon="0.29261">
        <ele>1844.393</ele>
        <time>2020-04-19T21:53:03Z</time>
      </trkpt>
      <trkpt lat="42.69571" lon="0.29256">
        <ele>1853.965</ele>
        <time>2020-04-19T21:53:23Z</time>
      </trkpt>
      <trkpt lat="42.69602" lon="0.2922">
        <ele>1867.221</ele>
        <time>2020-04-19T21:53:43Z</time>
      </trkpt>
      <trkpt lat="42.69627" lon="0.29179">
        <ele>1873.308</ele>
        <time>2020-04-19T21:54:03Z</time>
      </trkpt>
      <trkpt lat="42.69577" lon="0.29179">
        <ele>1885.735</ele>
        <time>2020-04-19T21:54:23Z</time>
      </trkpt>
      <trkpt lat="42.69548" lon="0.29187">
        <ele>1887.664</ele>
        <time>2020-04-19T21:54:43Z</time>
      </trkpt>
      <trkpt lat="42.69527" lon="0.29177">
        <ele>1907.285</ele>
        <time>2021-02-12T22:52:34Z</time>
      </trkpt>
      <trkpt lat="42.69532" lon="0.29165">
        <ele>1912.921</ele>
        <time>2021-02-12T22:52:54Z</time>
      </trkpt>
      <trkpt lat="42.69476" lon="0.29148">
        <ele>1964.59</ele>
        <time>2020-04-19T21:55:03Z</time>
      </trkpt>
      <trkpt lat="42.69455" lon="0.29144">
        <ele>1971.232</ele>
        <time>2020-04-19T21:55:23Z</time>
      </trkpt>
      <trkpt lat="42.6944" lon="0.29147">
        <ele>1969.669</ele>
        <time>2020-04-19T21:55:43Z</time>
      </trkpt>
      <trkpt lat="42.69416" lon="0.29136">
        <ele>1974.746</ele>
        <time>2020-04-19T21:56:03Z</time>
      </trkpt>
      <trkpt lat="42.69387" lon="0.29138">
        <ele>1973.195</ele>
        <time>2021-02-12T22:54:34Z</time>
      </trkpt>
      <trkpt lat="42.69382" lon="0.29126">
        <ele>1980.249</ele>
        <time>2021-02-12T22:54:54Z</time>
      </trkpt>
      <trkpt lat="42.69351" lon="0.29134">
        <ele>1979.923</ele>
        <time>2020-04-19T21:57:03Z</time>
      </trkpt>
      <trkpt lat="42.69309" lon="0.29134">
        <ele>1979.308</ele>
        <time>2020-04-19T21:57:23Z</time>
      </trkpt>
      <trkpt lat="42.6928" lon="0.29107">
        <ele>1983.695</ele>
        <time>2020-04-19T21:57:43Z</time>
      </trkpt>
      <trkpt lat="42.69287" lon="0.29092">
        <ele>1986.134</ele>
        <time>2020-04-19T21:58:03Z</time>
      </trkpt>
      <trkpt lat="42.69269" lon="0.29079">
        <ele>2009.635</ele>
        <time>2020-04-19T21:58:23Z</time>
      </trkpt>
      <trkpt lat="42.69289" lon="0.29066">
        <ele>2018.911</ele>
        <time>2020-04-19T21:58:43Z</time>
      </trkpt>
      <trkpt lat="42.69248" lon="0.29046">
        <ele>2015.77</ele>
        <time>2020-04-19T21:59:03Z</time>
      </trkpt>
      <trkpt lat="42.6921" lon="0.28996">
        <ele>2054.292</ele>
        <time>2020-04-19T21:59:23Z</time>
      </trkpt>
      <trkpt lat="42.69202" lon="0.28975">
        <ele>2056.829</ele>
        <time>2020-04-19T21:59:43Z</time>
      </trkpt>
      <trkpt lat="42.69179" lon="0.28951">
        <ele>2061.636</ele>
        <time>2020-04-19T22:00:03Z</time>
      </trkpt>
      <trkpt lat="42.69165" lon="0.28904">
        <ele>2074.414</ele>
        <time>2020-04-19T22:00:23Z</time>
      </trkpt>
      <trkpt lat="42.69155" lon="0.28886">
        <ele>2076.754</ele>
        <time>2020-04-19T22:00:43Z</time>
      </trkpt>
      <trkpt lat="42.69139" lon="0.28871">
        <ele>2078.209</ele>
        <time>2020-04-19T22:01:03Z</time>
      </trkpt>
      <trkpt lat="42.69132" lon="0.28839">
        <ele>2082.608</ele>
        <time>2020-04-19T22:01:23Z</time>
      </trkpt>
      <trkpt lat="42.69123" lon="0.28808">
        <ele>2109.377</ele>
        <time>2020-04-19T22:01:43Z</time>
      </trkpt>
      <trkpt lat="42.6909" lon="0.28783">
        <ele>2116.316</ele>
        <time>2020-04-19T22:02:03Z</time>
      </trkpt>
      <trkpt lat="42.69078" lon="0.28781">
        <ele>2115.617</ele>
        <time>2020-04-19T22:02:23Z</time>
      </trkpt>
      <trkpt lat="42.69057" lon="0.28794">
        <ele>2110.483</ele>
        <time>2020-04-19T22:02:43Z</time>
      </trkpt>
      <trkpt lat="42.69011" lon="0.28795">
        <ele>2110.092</ele>
        <time>2020-04-19T22:03:03Z</time>
      </trkpt>
      <trkpt lat="42.68997" lon="0.28785">
        <ele>2119.784</ele>
        <time>2020-04-19T22:03:23Z</time>
      </trkpt>
      <trkpt lat="42.68971" lon="0.28791">
        <ele>2120.751</ele>
        <time>2020-04-19T22:03:43Z</time>
      </trkpt>
      <trkpt lat="42.68944" lon="0.28766">
        <ele>2129.938</ele>
        <time>2020-04-19T22:04:03Z</time>
      </trkpt>
      <trkpt lat="42.68936" lon="0.2877">
        <ele>2131.178</ele>
        <time>2020-04-19T22:04:23Z</time>
      </trkpt>
      <trkpt lat="42.68908" lon="0.28813">
        <ele>2140.433</ele>
        <time>2020-04-19T22:04:43Z</time>
      </trkpt>
      <trkpt lat="42.68887" lon="0.28835">
        <ele>2131.626</ele>
        <time>2020-04-19T22:05:03Z</time>
      </trkpt>
      <trkpt lat="42.68863" lon="0.28853">
        <ele>2139.708</ele>
        <time>2020-04-19T22:05:23Z</time>
      </trkpt>
      <trkpt lat="42.68828" lon="0.28911">
        <ele>2155.993</ele>
        <time>2020-04-19T22:05:43Z</time>
      </trkpt>
      <trkpt lat="42.6883" lon="0.2893">
        <ele>2159.032</ele>
        <time>2020-04-19T22:06:03Z</time>
      </trkpt>
      <trkpt lat="42.68847" lon="0.28976">
        <ele>2135.913</ele>
        <time>2020-04-19T22:06:23Z</time>
      </trkpt>
      <trkpt lat="42.68828" lon="0.29076">
        <ele>2168.099</ele>
        <time>2020-04-19T22:06:43Z</time>
      </trkpt>
      <trkpt lat="42.68828" lon="0.29131">
        <ele>2190.748</ele>
        <time>2020-04-19T22:07:03Z</time>
      </trkpt>
      <trkpt lat="42.68823" lon="0.29135">
        <ele>2192.05</ele>
        <time>2020-04-19T22:07:23Z</time>
      </trkpt>
      <trkpt lat="42.68804" lon="0.29067">
        <ele>2180.567</ele>
        <time>2020-04-19T22:07:43Z</time>
      </trkpt>
      <trkpt lat="42.68793" lon="0.29082">
        <ele>2185.294</ele>
        <time>2020-04-19T22:08:03Z</time>
      </trkpt>
      <trkpt lat="42.68788" lon="0.29111">
        <ele>2198.452</ele>
        <time>2020-04-19T22:08:23Z</time>
      </trkpt>
      <trkpt lat="42.68773" lon="0.29079">
        <ele>2195.253</ele>
        <time>2020-04-19T22:08:43Z</time>
      </trkpt>
      <trkpt lat="42.68778" lon="0.29044">
        <ele>2188.808</ele>
        <time>2020-04-19T22:09:03Z</time>
      </trkpt>
      <trkpt lat="42.68772" lon="0.29012">
        <ele>2191.708</ele>
        <time>2020-04-19T22:09:23Z</time>
      </trkpt>
      <trkpt lat="42.68755" lon="0.29037">
        <ele>2193.611</ele>
        <time>2020-04-19T22:09:43Z</time>
      </trkpt>
      <trkpt lat="42.68741" lon="0.2908">
        <ele>2219.59</ele>
        <time>2020-04-19T22:10:03Z</time>
      </trkpt>
      <trkpt lat="42.68717" lon="0.29022">
        <ele>2225.521</ele>
        <time>2020-04-19T22:10:23Z</time>
      </trkpt>
      <trkpt lat="42.68711" lon="0.28984">
        <ele>2222.217</ele>
        <time>2020-04-19T22:10:43Z</time>
      </trkpt>
      <trkpt lat="42.68694" lon="0.29032">
        <ele>2231.566</ele>
        <time>2020-04-19T22:11:03Z</time>
      </trkpt>
      <trkpt lat="42.68672" lon="0.29057">
        <ele>2237.318</ele>
        <time>2020-04-19T22:11:23Z</time>
      </trkpt>
      <trkpt lat="42.68668" lon="0.29079">
        <ele>2246.385</ele>
        <time>2020-04-19T22:11:43Z</time>
      </trkpt>
      <trkpt lat="42.68677" lon="0.29114">
        <ele>2248.872</ele>
        <time>2020-04-19T22:12:03Z</time>
      </trkpt>
      <trkpt lat="42.68638" lon="0.29095">
        <ele>2272.247</ele>
        <time>2020-04-19T22:12:23Z</time>
      </trkpt>
      <trkpt lat="42.68562" lon="0.29035">
        <ele>2285.029</ele>
        <time>2020-04-19T22:12:43Z</time>
      </trkpt>
      <trkpt lat="42.68555" lon="0.29013">
        <ele>2284.021</ele>
        <time>2020-04-19T22:13:03Z</time>
      </trkpt>
      <trkpt lat="42.68558" lon="0.28995">
        <ele>2283.108</ele>
        <time>2020-04-19T22:13:23Z</time>
      </trkpt>
      <trkpt lat="42.68531" lon="0.29028">
        <ele>2288.53</ele>
        <time>2020-04-19T22:13:43Z</time>
      </trkpt>
      <trkpt lat="42.68494" lon="0.29039">
        <ele>2296.099</ele>
        <time>2021-02-12T23:12:14Z</time>
      </trkpt>
      <trkpt lat="42.68454" lon="0.29035">
        <ele>2299.29</ele>
        <time>2021-02-12T23:12:34Z</time>
      </trkpt>
      <trkpt lat="42.68428" lon="0.29045">
        <ele>2298.456</ele>
        <time>2021-02-12T23:12:54Z</time>
      </trkpt>
      <trkpt lat="42.68388" lon="0.29034">
        <ele>2296.855</ele>
        <time>2021-02-12T23:13:14Z</time>
      </trkpt>
      <trkpt lat="42.68374" lon="0.29004">
        <ele>2302.567</ele>
        <time>2021-02-12T23:13:34Z</time>
      </trkpt>
      <trkpt lat="42.68253" lon="0.28806">
        <ele>2323.534</ele>
        <time>2021-02-12T23:13:54Z</time>
      </trkpt>
      <trkpt lat="42.68233" lon="0.28752">
        <ele>2328.831</ele>
        <time>2021-02-12T23:14:14Z</time>
      </trkpt>
      <trkpt lat="42.68214" lon="0.28729">
        <ele>2330.978</ele>
        <time>2021-02-12T23:14:34Z</time>
      </trkpt>
      <trkpt lat="42.6816" lon="0.28711">
        <ele>2330.633</ele>
        <time>2021-02-12T23:14:54Z</time>
      </trkpt>
      <trkpt lat="42.68111" lon="0.28649">
        <ele>2348.026</ele>
        <time>2021-02-12T23:15:14Z</time>
      </trkpt>
      <trkpt lat="42.68083" lon="0.28631">
        <ele>2361.008</ele>
        <time>2020-04-19T22:19:03Z</time>
      </trkpt>
      <trkpt lat="42.68051" lon="0.28615">
        <ele>2366.013</ele>
        <time>2020-04-19T22:19:23Z</time>
      </trkpt>
      <trkpt lat="42.68055" lon="0.28596">
        <ele>2366.712</ele>
        <time>2020-04-19T22:19:43Z</time>
      </trkpt>
      <trkpt lat="42.68042" lon="0.2855">
        <ele>2386.073</ele>
        <time>2020-04-19T22:20:03Z</time>
      </trkpt>
      <trkpt lat="42.68015" lon="0.2857">
        <ele>2386.149</ele>
        <time>2020-04-19T22:20:23Z</time>
      </trkpt>
      <trkpt lat="42.68019" lon="0.2853">
        <ele>2390.288</ele>
        <time>2020-04-19T22:20:43Z</time>
      </trkpt>
      <trkpt lat="42.67984" lon="0.28561">
        <ele>2387.06</ele>
        <time>2020-04-19T22:21:03Z</time>
      </trkpt>
      <trkpt lat="42.67947" lon="0.28563">
        <ele>2386.357</ele>
        <time>2020-04-19T22:21:23Z</time>
      </trkpt>
    </trkseg>
  </trk>
</gpx>